<?xml version="1.0" encoding="UTF-8" standalone="no" ?>
<gpx xmlns="http://www.topografix.com/GPX/1/1" xmlns:xsi="http://www.w3.org/2001/XMLSchema-instance" xsi:schemaLocation="http://www.topografix.com/GPX/1/1 http://www.topografix.com/GPX/1/1/gpx.xsd" version="1.1" creator="VisuGPX - https://www.visugpx.com">
  <metadata>
    <name>les 4 tours</name>
  </metadata>
  <trk>
    <name><![CDATA[les 4 tours_1]]></name>
    <extensions>
      <line xmlns="http://www.topografix.com/GPX/gpx_style/0/2">
        <color>0000FF</color>
        <opacity>1</opacity>
        <width>4</width>
      </line>
    </extensions>
    <trkseg>
      <trkpt lat="43.69087" lon="5.66709">
        <ele>297.4</ele>
        <time>2022-12-22T08:44:26Z</time>
        <extensions>
          <visugpx:TrkExtension xmlns:visugpx="https://www.visugpx.com/editgpx/">
            <visugpx:node>1</visugpx:node>
            </visugpx:TrkExtension>
        </extensions>
      </trkpt>
      <trkpt lat="43.69087" lon="5.66709">
        <ele>297.4</ele>
        <time>2022-12-22T08:44:47Z</time>
      </trkpt>
      <trkpt lat="43.69087" lon="5.66709">
        <ele>297.4</ele>
        <time>2022-12-22T08:45:08Z</time>
      </trkpt>
      <trkpt lat="43.69087" lon="5.66709">
        <ele>297.4</ele>
        <time>2022-12-22T08:45:28Z</time>
      </trkpt>
      <trkpt lat="43.69087" lon="5.66709">
        <ele>297.4</ele>
        <time>2022-12-22T08:45:49Z</time>
      </trkpt>
      <trkpt lat="43.69087" lon="5.66709">
        <ele>297.4</ele>
        <time>2022-12-22T08:46:10Z</time>
      </trkpt>
      <trkpt lat="43.69087" lon="5.66709">
        <ele>297.4</ele>
        <time>2022-12-22T08:46:31Z</time>
      </trkpt>
      <trkpt lat="43.69081" lon="5.66696">
        <ele>287.2</ele>
        <time>2022-12-22T08:46:51Z</time>
      </trkpt>
      <trkpt lat="43.69075" lon="5.66679">
        <ele>285.2</ele>
        <time>2022-12-22T08:47:12Z</time>
      </trkpt>
      <trkpt lat="43.69067" lon="5.66661">
        <ele>284.2</ele>
        <time>2022-12-22T08:47:33Z</time>
      </trkpt>
      <trkpt lat="43.69053" lon="5.66646">
        <ele>286.6</ele>
        <time>2022-12-22T08:47:54Z</time>
      </trkpt>
      <trkpt lat="43.69045" lon="5.66625">
        <ele>283.6</ele>
        <time>2022-12-22T08:48:14Z</time>
      </trkpt>
      <trkpt lat="43.69029" lon="5.66597">
        <ele>293.4</ele>
        <time>2022-12-22T08:48:35Z</time>
      </trkpt>
      <trkpt lat="43.69019" lon="5.66569">
        <ele>295.6</ele>
        <time>2022-12-22T08:48:56Z</time>
      </trkpt>
      <trkpt lat="43.69011" lon="5.66543">
        <ele>293.7</ele>
        <time>2022-12-22T08:49:17Z</time>
      </trkpt>
      <trkpt lat="43.6901" lon="5.66524">
        <ele>295.6</ele>
        <time>2022-12-22T08:49:38Z</time>
      </trkpt>
      <trkpt lat="43.69015" lon="5.66501">
        <ele>288.3</ele>
        <time>2022-12-22T08:49:58Z</time>
      </trkpt>
      <trkpt lat="43.69014" lon="5.66468">
        <ele>286.9</ele>
        <time>2022-12-22T08:50:18Z</time>
      </trkpt>
      <trkpt lat="43.69006" lon="5.66441">
        <ele>285.2</ele>
        <time>2022-12-22T08:50:38Z</time>
      </trkpt>
      <trkpt lat="43.68991" lon="5.66411">
        <ele>282.9</ele>
        <time>2022-12-22T08:50:59Z</time>
      </trkpt>
      <trkpt lat="43.68984" lon="5.6638">
        <ele>282.3</ele>
        <time>2022-12-22T08:51:20Z</time>
      </trkpt>
      <trkpt lat="43.68984" lon="5.66348">
        <ele>281.5</ele>
        <time>2022-12-22T08:51:41Z</time>
      </trkpt>
      <trkpt lat="43.68977" lon="5.66322">
        <ele>278.3</ele>
        <time>2022-12-22T08:52:01Z</time>
      </trkpt>
      <trkpt lat="43.68973" lon="5.66293">
        <ele>276</ele>
        <time>2022-12-22T08:52:22Z</time>
      </trkpt>
      <trkpt lat="43.68967" lon="5.66259">
        <ele>283.5</ele>
        <time>2022-12-22T08:52:42Z</time>
      </trkpt>
      <trkpt lat="43.68962" lon="5.66234">
        <ele>280.9</ele>
        <time>2022-12-22T08:53:03Z</time>
      </trkpt>
      <trkpt lat="43.68958" lon="5.6623">
        <ele>283.4</ele>
        <time>2022-12-22T08:53:24Z</time>
      </trkpt>
      <trkpt lat="43.68957" lon="5.66222">
        <ele>283.3</ele>
        <time>2022-12-22T08:53:44Z</time>
      </trkpt>
      <trkpt lat="43.68958" lon="5.66195">
        <ele>279.2</ele>
        <time>2022-12-22T08:54:05Z</time>
      </trkpt>
      <trkpt lat="43.68954" lon="5.66165">
        <ele>278.3</ele>
        <time>2022-12-22T08:54:26Z</time>
      </trkpt>
      <trkpt lat="43.68949" lon="5.66134">
        <ele>280.9</ele>
        <time>2022-12-22T08:54:47Z</time>
      </trkpt>
      <trkpt lat="43.68946" lon="5.66108">
        <ele>281.2</ele>
        <time>2022-12-22T08:55:07Z</time>
      </trkpt>
      <trkpt lat="43.68943" lon="5.66079">
        <ele>284.3</ele>
        <time>2022-12-22T08:55:28Z</time>
      </trkpt>
      <trkpt lat="43.68939" lon="5.66049">
        <ele>280.9</ele>
        <time>2022-12-22T08:55:49Z</time>
      </trkpt>
      <trkpt lat="43.68938" lon="5.66042">
        <ele>278.8</ele>
        <time>2022-12-22T08:56:10Z</time>
      </trkpt>
      <trkpt lat="43.68937" lon="5.66016">
        <ele>281.6</ele>
        <time>2022-12-22T08:56:30Z</time>
      </trkpt>
      <trkpt lat="43.6894" lon="5.65987">
        <ele>280.9</ele>
        <time>2022-12-22T08:56:51Z</time>
      </trkpt>
      <trkpt lat="43.68947" lon="5.65955">
        <ele>283.1</ele>
        <time>2022-12-22T08:57:12Z</time>
      </trkpt>
      <trkpt lat="43.68949" lon="5.65946">
        <ele>283.3</ele>
        <time>2022-12-22T08:57:33Z</time>
      </trkpt>
      <trkpt lat="43.68946" lon="5.65919">
        <ele>285.2</ele>
        <time>2022-12-22T08:57:54Z</time>
      </trkpt>
      <trkpt lat="43.6894" lon="5.65889">
        <ele>287</ele>
        <time>2022-12-22T08:58:15Z</time>
      </trkpt>
      <trkpt lat="43.68929" lon="5.65862">
        <ele>285.5</ele>
        <time>2022-12-22T08:58:36Z</time>
      </trkpt>
      <trkpt lat="43.68919" lon="5.65835">
        <ele>283.6</ele>
        <time>2022-12-22T08:58:56Z</time>
      </trkpt>
      <trkpt lat="43.68906" lon="5.65812">
        <ele>288.1</ele>
        <time>2022-12-22T08:59:17Z</time>
      </trkpt>
      <trkpt lat="43.68894" lon="5.65786">
        <ele>288.4</ele>
        <time>2022-12-22T08:59:38Z</time>
      </trkpt>
      <trkpt lat="43.68882" lon="5.65761">
        <ele>284.4</ele>
        <time>2022-12-22T08:59:59Z</time>
      </trkpt>
      <trkpt lat="43.6887" lon="5.65735">
        <ele>284.7</ele>
        <time>2022-12-22T09:00:20Z</time>
      </trkpt>
      <trkpt lat="43.68869" lon="5.65728">
        <ele>286.8</ele>
        <time>2022-12-22T09:00:41Z</time>
      </trkpt>
      <trkpt lat="43.68869" lon="5.65728">
        <ele>286.8</ele>
        <time>2022-12-22T09:01:02Z</time>
      </trkpt>
      <trkpt lat="43.68869" lon="5.65728">
        <ele>286.8</ele>
        <time>2022-12-22T09:01:22Z</time>
      </trkpt>
      <trkpt lat="43.68868" lon="5.65722">
        <ele>287.6</ele>
        <time>2022-12-22T09:01:42Z</time>
      </trkpt>
      <trkpt lat="43.68854" lon="5.65702">
        <ele>287.1</ele>
        <time>2022-12-22T09:02:03Z</time>
      </trkpt>
      <trkpt lat="43.68839" lon="5.65681">
        <ele>281.3</ele>
        <time>2022-12-22T09:02:23Z</time>
      </trkpt>
      <trkpt lat="43.68822" lon="5.65669">
        <ele>281.6</ele>
        <time>2022-12-22T09:02:44Z</time>
      </trkpt>
      <trkpt lat="43.68801" lon="5.65661">
        <ele>283.1</ele>
        <time>2022-12-22T09:03:05Z</time>
      </trkpt>
      <trkpt lat="43.68779" lon="5.65653">
        <ele>285.9</ele>
        <time>2022-12-22T09:03:26Z</time>
      </trkpt>
      <trkpt lat="43.68758" lon="5.65652">
        <ele>286.1</ele>
        <time>2022-12-22T09:03:46Z</time>
      </trkpt>
      <trkpt lat="43.68737" lon="5.65646">
        <ele>286.4</ele>
        <time>2022-12-22T09:04:06Z</time>
      </trkpt>
      <trkpt lat="43.6872" lon="5.65636">
        <ele>287.2</ele>
        <time>2022-12-22T09:04:26Z</time>
      </trkpt>
      <trkpt lat="43.68705" lon="5.65617">
        <ele>284.7</ele>
        <time>2022-12-22T09:04:47Z</time>
      </trkpt>
      <trkpt lat="43.68689" lon="5.65599">
        <ele>284.6</ele>
        <time>2022-12-22T09:05:08Z</time>
      </trkpt>
      <trkpt lat="43.68669" lon="5.65587">
        <ele>287.8</ele>
        <time>2022-12-22T09:05:28Z</time>
      </trkpt>
      <trkpt lat="43.68656" lon="5.65571">
        <ele>285.4</ele>
        <time>2022-12-22T09:05:49Z</time>
      </trkpt>
      <trkpt lat="43.68646" lon="5.65557">
        <ele>283</ele>
        <time>2022-12-22T09:06:10Z</time>
      </trkpt>
      <trkpt lat="43.6864" lon="5.65542">
        <ele>281.5</ele>
        <time>2022-12-22T09:06:30Z</time>
      </trkpt>
      <trkpt lat="43.68628" lon="5.65526">
        <ele>282.9</ele>
        <time>2022-12-22T09:06:51Z</time>
      </trkpt>
      <trkpt lat="43.68609" lon="5.6551">
        <ele>284.2</ele>
        <time>2022-12-22T09:07:12Z</time>
      </trkpt>
      <trkpt lat="43.6859" lon="5.65503">
        <ele>287.4</ele>
        <time>2022-12-22T09:07:32Z</time>
      </trkpt>
      <trkpt lat="43.68581" lon="5.65483">
        <ele>288.1</ele>
        <time>2022-12-22T09:07:53Z</time>
      </trkpt>
      <trkpt lat="43.68561" lon="5.65461">
        <ele>299.9</ele>
        <time>2022-12-22T09:08:13Z</time>
      </trkpt>
      <trkpt lat="43.68542" lon="5.65453">
        <ele>295.1</ele>
        <time>2022-12-22T09:08:34Z</time>
      </trkpt>
      <trkpt lat="43.68525" lon="5.65447">
        <ele>290.8</ele>
        <time>2022-12-22T09:08:55Z</time>
      </trkpt>
      <trkpt lat="43.6851" lon="5.65437">
        <ele>285.8</ele>
        <time>2022-12-22T09:09:15Z</time>
      </trkpt>
      <trkpt lat="43.68492" lon="5.65434">
        <ele>288.9</ele>
        <time>2022-12-22T09:09:35Z</time>
      </trkpt>
      <trkpt lat="43.68475" lon="5.65421">
        <ele>289.4</ele>
        <time>2022-12-22T09:09:56Z</time>
      </trkpt>
      <trkpt lat="43.68457" lon="5.65412">
        <ele>292.2</ele>
        <time>2022-12-22T09:10:17Z</time>
      </trkpt>
      <trkpt lat="43.68437" lon="5.65403">
        <ele>293.6</ele>
        <time>2022-12-22T09:10:37Z</time>
      </trkpt>
      <trkpt lat="43.68418" lon="5.65389">
        <ele>297.3</ele>
        <time>2022-12-22T09:10:58Z</time>
      </trkpt>
      <trkpt lat="43.684" lon="5.65379">
        <ele>296</ele>
        <time>2022-12-22T09:11:18Z</time>
      </trkpt>
      <trkpt lat="43.68382" lon="5.65363">
        <ele>295.2</ele>
        <time>2022-12-22T09:11:39Z</time>
      </trkpt>
      <trkpt lat="43.68361" lon="5.65353">
        <ele>292.7</ele>
        <time>2022-12-22T09:12:00Z</time>
      </trkpt>
      <trkpt lat="43.68343" lon="5.65339">
        <ele>292.7</ele>
        <time>2022-12-22T09:12:20Z</time>
      </trkpt>
      <trkpt lat="43.68327" lon="5.65335">
        <ele>292</ele>
        <time>2022-12-22T09:12:41Z</time>
      </trkpt>
      <trkpt lat="43.68326" lon="5.65335">
        <ele>292.3</ele>
        <time>2022-12-22T09:13:02Z</time>
      </trkpt>
      <trkpt lat="43.68313" lon="5.65327">
        <ele>294.5</ele>
        <time>2022-12-22T09:13:22Z</time>
      </trkpt>
      <trkpt lat="43.68302" lon="5.65313">
        <ele>293.4</ele>
        <time>2022-12-22T09:13:43Z</time>
      </trkpt>
      <trkpt lat="43.68285" lon="5.653">
        <ele>293.1</ele>
        <time>2022-12-22T09:14:04Z</time>
      </trkpt>
      <trkpt lat="43.68273" lon="5.6528">
        <ele>291.8</ele>
        <time>2022-12-22T09:14:25Z</time>
      </trkpt>
      <trkpt lat="43.68263" lon="5.65256">
        <ele>292.1</ele>
        <time>2022-12-22T09:14:45Z</time>
      </trkpt>
      <trkpt lat="43.68254" lon="5.65225">
        <ele>290.7</ele>
        <time>2022-12-22T09:15:06Z</time>
      </trkpt>
      <trkpt lat="43.68248" lon="5.65199">
        <ele>290.2</ele>
        <time>2022-12-22T09:15:27Z</time>
      </trkpt>
      <trkpt lat="43.68228" lon="5.65184">
        <ele>290.8</ele>
        <time>2022-12-22T09:15:48Z</time>
      </trkpt>
      <trkpt lat="43.68208" lon="5.65168">
        <ele>289.5</ele>
        <time>2022-12-22T09:16:09Z</time>
      </trkpt>
      <trkpt lat="43.68195" lon="5.65142">
        <ele>286.6</ele>
        <time>2022-12-22T09:16:30Z</time>
      </trkpt>
      <trkpt lat="43.68179" lon="5.65113">
        <ele>289.8</ele>
        <time>2022-12-22T09:16:51Z</time>
      </trkpt>
      <trkpt lat="43.68169" lon="5.65084">
        <ele>289</ele>
        <time>2022-12-22T09:17:12Z</time>
      </trkpt>
      <trkpt lat="43.68156" lon="5.65052">
        <ele>292</ele>
        <time>2022-12-22T09:17:33Z</time>
      </trkpt>
      <trkpt lat="43.68153" lon="5.65021">
        <ele>292.5</ele>
        <time>2022-12-22T09:17:53Z</time>
      </trkpt>
      <trkpt lat="43.68139" lon="5.64996">
        <ele>290.6</ele>
        <time>2022-12-22T09:18:14Z</time>
      </trkpt>
      <trkpt lat="43.68127" lon="5.64971">
        <ele>287.5</ele>
        <time>2022-12-22T09:18:35Z</time>
      </trkpt>
      <trkpt lat="43.68122" lon="5.64939">
        <ele>289.5</ele>
        <time>2022-12-22T09:18:55Z</time>
      </trkpt>
      <trkpt lat="43.68124" lon="5.64929">
        <ele>291.8</ele>
        <time>2022-12-22T09:19:16Z</time>
      </trkpt>
      <trkpt lat="43.68123" lon="5.64931">
        <ele>294.1</ele>
        <time>2022-12-22T09:19:37Z</time>
      </trkpt>
      <trkpt lat="43.68123" lon="5.64931">
        <ele>294.1</ele>
        <time>2022-12-22T09:19:57Z</time>
      </trkpt>
      <trkpt lat="43.68123" lon="5.64931">
        <ele>294.1</ele>
        <time>2022-12-22T09:20:18Z</time>
      </trkpt>
      <trkpt lat="43.68123" lon="5.64931">
        <ele>294.1</ele>
        <time>2022-12-22T09:20:38Z</time>
      </trkpt>
      <trkpt lat="43.68116" lon="5.64913">
        <ele>290.8</ele>
        <time>2022-12-22T09:20:59Z</time>
      </trkpt>
      <trkpt lat="43.68104" lon="5.6489">
        <ele>288.6</ele>
        <time>2022-12-22T09:21:19Z</time>
      </trkpt>
      <trkpt lat="43.68099" lon="5.64878">
        <ele>291.2</ele>
        <time>2022-12-22T09:21:39Z</time>
      </trkpt>
      <trkpt lat="43.68087" lon="5.64851">
        <ele>291.7</ele>
        <time>2022-12-22T09:22:00Z</time>
      </trkpt>
      <trkpt lat="43.68076" lon="5.64828">
        <ele>292.9</ele>
        <time>2022-12-22T09:22:20Z</time>
      </trkpt>
      <trkpt lat="43.68064" lon="5.64803">
        <ele>296.6</ele>
        <time>2022-12-22T09:22:41Z</time>
      </trkpt>
      <trkpt lat="43.68049" lon="5.64781">
        <ele>298.2</ele>
        <time>2022-12-22T09:23:01Z</time>
      </trkpt>
      <trkpt lat="43.68035" lon="5.64765">
        <ele>297.9</ele>
        <time>2022-12-22T09:23:22Z</time>
      </trkpt>
      <trkpt lat="43.68028" lon="5.64749">
        <ele>297.5</ele>
        <time>2022-12-22T09:23:42Z</time>
      </trkpt>
      <trkpt lat="43.68035" lon="5.64718">
        <ele>296.8</ele>
        <time>2022-12-22T09:24:03Z</time>
      </trkpt>
      <trkpt lat="43.68048" lon="5.64694">
        <ele>293.3</ele>
        <time>2022-12-22T09:24:23Z</time>
      </trkpt>
      <trkpt lat="43.68064" lon="5.64671">
        <ele>293.7</ele>
        <time>2022-12-22T09:24:44Z</time>
      </trkpt>
      <trkpt lat="43.68068" lon="5.6464">
        <ele>292.5</ele>
        <time>2022-12-22T09:25:05Z</time>
      </trkpt>
      <trkpt lat="43.68051" lon="5.64619">
        <ele>297.4</ele>
        <time>2022-12-22T09:25:26Z</time>
      </trkpt>
      <trkpt lat="43.68031" lon="5.6463">
        <ele>297.9</ele>
        <time>2022-12-22T09:25:46Z</time>
      </trkpt>
      <trkpt lat="43.6801" lon="5.64632">
        <ele>295.8</ele>
        <time>2022-12-22T09:26:07Z</time>
      </trkpt>
      <trkpt lat="43.67989" lon="5.64638">
        <ele>295.6</ele>
        <time>2022-12-22T09:26:27Z</time>
      </trkpt>
      <trkpt lat="43.67973" lon="5.64624">
        <ele>297.5</ele>
        <time>2022-12-22T09:26:48Z</time>
      </trkpt>
      <trkpt lat="43.67956" lon="5.64604">
        <ele>298.3</ele>
        <time>2022-12-22T09:27:09Z</time>
      </trkpt>
      <trkpt lat="43.67938" lon="5.64589">
        <ele>295.8</ele>
        <time>2022-12-22T09:27:29Z</time>
      </trkpt>
      <trkpt lat="43.67914" lon="5.64571">
        <ele>301</ele>
        <time>2022-12-22T09:27:50Z</time>
      </trkpt>
      <trkpt lat="43.67899" lon="5.64549">
        <ele>299</ele>
        <time>2022-12-22T09:28:10Z</time>
      </trkpt>
      <trkpt lat="43.67882" lon="5.64523">
        <ele>301.8</ele>
        <time>2022-12-22T09:28:30Z</time>
      </trkpt>
      <trkpt lat="43.67869" lon="5.64501">
        <ele>298.5</ele>
        <time>2022-12-22T09:28:51Z</time>
      </trkpt>
      <trkpt lat="43.67859" lon="5.64486">
        <ele>302</ele>
        <time>2022-12-22T09:29:11Z</time>
      </trkpt>
      <trkpt lat="43.67845" lon="5.64466">
        <ele>300.2</ele>
        <time>2022-12-22T09:29:32Z</time>
      </trkpt>
      <trkpt lat="43.67828" lon="5.64446">
        <ele>297.5</ele>
        <time>2022-12-22T09:29:52Z</time>
      </trkpt>
      <trkpt lat="43.67809" lon="5.64421">
        <ele>303.1</ele>
        <time>2022-12-22T09:30:12Z</time>
      </trkpt>
      <trkpt lat="43.67791" lon="5.64396">
        <ele>302.8</ele>
        <time>2022-12-22T09:30:33Z</time>
      </trkpt>
      <trkpt lat="43.67778" lon="5.64379">
        <ele>296.8</ele>
        <time>2022-12-22T09:30:54Z</time>
      </trkpt>
      <trkpt lat="43.67761" lon="5.64356">
        <ele>298.3</ele>
        <time>2022-12-22T09:31:14Z</time>
      </trkpt>
      <trkpt lat="43.67747" lon="5.64333">
        <ele>292.6</ele>
        <time>2022-12-22T09:31:34Z</time>
      </trkpt>
      <trkpt lat="43.67727" lon="5.6431">
        <ele>289.9</ele>
        <time>2022-12-22T09:31:55Z</time>
      </trkpt>
      <trkpt lat="43.67712" lon="5.64285">
        <ele>295.9</ele>
        <time>2022-12-22T09:32:15Z</time>
      </trkpt>
      <trkpt lat="43.67709" lon="5.6428">
        <ele>297.6</ele>
        <time>2022-12-22T09:32:36Z</time>
      </trkpt>
      <trkpt lat="43.67696" lon="5.64261">
        <ele>295.3</ele>
        <time>2022-12-22T09:32:56Z</time>
      </trkpt>
      <trkpt lat="43.67678" lon="5.64238">
        <ele>294.2</ele>
        <time>2022-12-22T09:33:17Z</time>
      </trkpt>
      <trkpt lat="43.67664" lon="5.64214">
        <ele>293.9</ele>
        <time>2022-12-22T09:33:37Z</time>
      </trkpt>
      <trkpt lat="43.67656" lon="5.64186">
        <ele>289.3</ele>
        <time>2022-12-22T09:33:58Z</time>
      </trkpt>
      <trkpt lat="43.6765" lon="5.64159">
        <ele>285.3</ele>
        <time>2022-12-22T09:34:18Z</time>
      </trkpt>
      <trkpt lat="43.67638" lon="5.64133">
        <ele>287</ele>
        <time>2022-12-22T09:34:38Z</time>
      </trkpt>
      <trkpt lat="43.67624" lon="5.641">
        <ele>293.8</ele>
        <time>2022-12-22T09:34:59Z</time>
      </trkpt>
      <trkpt lat="43.6762" lon="5.64082">
        <ele>294.3</ele>
        <time>2022-12-22T09:35:20Z</time>
      </trkpt>
      <trkpt lat="43.67634" lon="5.64061">
        <ele>290.9</ele>
        <time>2022-12-22T09:35:40Z</time>
      </trkpt>
      <trkpt lat="43.67654" lon="5.6405">
        <ele>284.5</ele>
        <time>2022-12-22T09:36:01Z</time>
      </trkpt>
      <trkpt lat="43.67651" lon="5.64029">
        <ele>278.4</ele>
        <time>2022-12-22T09:36:21Z</time>
      </trkpt>
      <trkpt lat="43.67624" lon="5.64013">
        <ele>286.4</ele>
        <time>2022-12-22T09:36:42Z</time>
      </trkpt>
      <trkpt lat="43.67606" lon="5.64021">
        <ele>281.2</ele>
        <time>2022-12-22T09:37:03Z</time>
      </trkpt>
      <trkpt lat="43.67581" lon="5.64022">
        <ele>282.7</ele>
        <time>2022-12-22T09:37:23Z</time>
      </trkpt>
      <trkpt lat="43.67567" lon="5.64015">
        <ele>277.8</ele>
        <time>2022-12-22T09:37:44Z</time>
      </trkpt>
      <trkpt lat="43.67563" lon="5.64015">
        <ele>281.2</ele>
        <time>2022-12-22T09:38:04Z</time>
      </trkpt>
      <trkpt lat="43.6755" lon="5.64033">
        <ele>284</ele>
        <time>2022-12-22T09:38:24Z</time>
      </trkpt>
      <trkpt lat="43.67533" lon="5.64035">
        <ele>285.9</ele>
        <time>2022-12-22T09:38:45Z</time>
      </trkpt>
      <trkpt lat="43.67511" lon="5.64025">
        <ele>283.5</ele>
        <time>2022-12-22T09:39:06Z</time>
      </trkpt>
      <trkpt lat="43.67512" lon="5.63999">
        <ele>281.9</ele>
        <time>2022-12-22T09:39:26Z</time>
      </trkpt>
      <trkpt lat="43.67504" lon="5.6398">
        <ele>280.1</ele>
        <time>2022-12-22T09:39:47Z</time>
      </trkpt>
      <trkpt lat="43.67495" lon="5.63958">
        <ele>278</ele>
        <time>2022-12-22T09:40:07Z</time>
      </trkpt>
      <trkpt lat="43.67487" lon="5.63929">
        <ele>273.7</ele>
        <time>2022-12-22T09:40:27Z</time>
      </trkpt>
      <trkpt lat="43.67473" lon="5.63894">
        <ele>273.7</ele>
        <time>2022-12-22T09:40:48Z</time>
      </trkpt>
      <trkpt lat="43.67465" lon="5.63867">
        <ele>275.1</ele>
        <time>2022-12-22T09:41:09Z</time>
      </trkpt>
      <trkpt lat="43.67452" lon="5.63837">
        <ele>275.2</ele>
        <time>2022-12-22T09:41:30Z</time>
      </trkpt>
      <trkpt lat="43.67439" lon="5.63808">
        <ele>273.5</ele>
        <time>2022-12-22T09:41:51Z</time>
      </trkpt>
      <trkpt lat="43.67425" lon="5.63781">
        <ele>276.5</ele>
        <time>2022-12-22T09:42:11Z</time>
      </trkpt>
      <trkpt lat="43.67412" lon="5.63759">
        <ele>274.2</ele>
        <time>2022-12-22T09:42:31Z</time>
      </trkpt>
      <trkpt lat="43.67399" lon="5.63731">
        <ele>274.9</ele>
        <time>2022-12-22T09:42:52Z</time>
      </trkpt>
      <trkpt lat="43.67389" lon="5.63699">
        <ele>275.5</ele>
        <time>2022-12-22T09:43:12Z</time>
      </trkpt>
      <trkpt lat="43.67386" lon="5.63675">
        <ele>277</ele>
        <time>2022-12-22T09:43:33Z</time>
      </trkpt>
      <trkpt lat="43.6739" lon="5.63663">
        <ele>279.4</ele>
        <time>2022-12-22T09:43:54Z</time>
      </trkpt>
      <trkpt lat="43.67387" lon="5.63662">
        <ele>279.2</ele>
        <time>2022-12-22T09:44:15Z</time>
      </trkpt>
      <trkpt lat="43.67368" lon="5.63644">
        <ele>274.5</ele>
        <time>2022-12-22T09:44:35Z</time>
      </trkpt>
      <trkpt lat="43.67364" lon="5.63617">
        <ele>274.3</ele>
        <time>2022-12-22T09:44:55Z</time>
      </trkpt>
      <trkpt lat="43.67358" lon="5.63588">
        <ele>276.9</ele>
        <time>2022-12-22T09:45:15Z</time>
      </trkpt>
      <trkpt lat="43.6735" lon="5.63558">
        <ele>276.6</ele>
        <time>2022-12-22T09:45:36Z</time>
      </trkpt>
      <trkpt lat="43.67336" lon="5.63527">
        <ele>279.3</ele>
        <time>2022-12-22T09:45:57Z</time>
      </trkpt>
      <trkpt lat="43.67325" lon="5.63506">
        <ele>278.9</ele>
        <time>2022-12-22T09:46:17Z</time>
      </trkpt>
      <trkpt lat="43.67308" lon="5.63477">
        <ele>277.3</ele>
        <time>2022-12-22T09:46:37Z</time>
      </trkpt>
      <trkpt lat="43.67294" lon="5.6345">
        <ele>277.4</ele>
        <time>2022-12-22T09:46:58Z</time>
      </trkpt>
      <trkpt lat="43.67294" lon="5.63448">
        <ele>278.7</ele>
        <time>2022-12-22T09:47:19Z</time>
      </trkpt>
      <trkpt lat="43.67294" lon="5.63452">
        <ele>280.3</ele>
        <time>2022-12-22T09:47:40Z</time>
      </trkpt>
      <trkpt lat="43.67294" lon="5.63452">
        <ele>280.3</ele>
        <time>2022-12-22T09:48:01Z</time>
      </trkpt>
      <trkpt lat="43.67294" lon="5.63452">
        <ele>280.3</ele>
        <time>2022-12-22T09:48:22Z</time>
      </trkpt>
      <trkpt lat="43.67297" lon="5.6345">
        <ele>279.4</ele>
        <time>2022-12-22T09:48:42Z</time>
      </trkpt>
      <trkpt lat="43.67297" lon="5.6345">
        <ele>279.4</ele>
        <time>2022-12-22T09:49:03Z</time>
      </trkpt>
      <trkpt lat="43.67297" lon="5.6345">
        <ele>279.4</ele>
        <time>2022-12-22T09:49:23Z</time>
      </trkpt>
      <trkpt lat="43.67297" lon="5.63448">
        <ele>277.8</ele>
        <time>2022-12-22T09:49:43Z</time>
      </trkpt>
      <trkpt lat="43.67297" lon="5.63448">
        <ele>277.8</ele>
        <time>2022-12-22T09:50:04Z</time>
      </trkpt>
      <trkpt lat="43.673" lon="5.63451">
        <ele>279.2</ele>
        <time>2022-12-22T09:50:24Z</time>
      </trkpt>
      <trkpt lat="43.67302" lon="5.63447">
        <ele>276.5</ele>
        <time>2022-12-22T09:50:45Z</time>
      </trkpt>
      <trkpt lat="43.67305" lon="5.6344">
        <ele>281.1</ele>
        <time>2022-12-22T09:51:05Z</time>
      </trkpt>
      <trkpt lat="43.67315" lon="5.63423">
        <ele>280</ele>
        <time>2022-12-22T09:51:26Z</time>
      </trkpt>
      <trkpt lat="43.67314" lon="5.63423">
        <ele>279.9</ele>
        <time>2022-12-22T09:51:47Z</time>
      </trkpt>
      <trkpt lat="43.67317" lon="5.63412">
        <ele>277.4</ele>
        <time>2022-12-22T09:52:07Z</time>
      </trkpt>
      <trkpt lat="43.67319" lon="5.63411">
        <ele>276.6</ele>
        <time>2022-12-22T09:52:27Z</time>
      </trkpt>
      <trkpt lat="43.67319" lon="5.63411">
        <ele>276.6</ele>
        <time>2022-12-22T09:52:48Z</time>
      </trkpt>
      <trkpt lat="43.67319" lon="5.63411">
        <ele>276.6</ele>
        <time>2022-12-22T09:53:09Z</time>
      </trkpt>
      <trkpt lat="43.67305" lon="5.63406">
        <ele>279.9</ele>
        <time>2022-12-22T09:53:29Z</time>
      </trkpt>
      <trkpt lat="43.67293" lon="5.63393">
        <ele>280.8</ele>
        <time>2022-12-22T09:53:50Z</time>
      </trkpt>
      <trkpt lat="43.67285" lon="5.63379">
        <ele>284</ele>
        <time>2022-12-22T09:54:10Z</time>
      </trkpt>
      <trkpt lat="43.67276" lon="5.6336">
        <ele>281.1</ele>
        <time>2022-12-22T09:54:31Z</time>
      </trkpt>
      <trkpt lat="43.67273" lon="5.63339">
        <ele>284.4</ele>
        <time>2022-12-22T09:54:52Z</time>
      </trkpt>
      <trkpt lat="43.67277" lon="5.63318">
        <ele>290.1</ele>
        <time>2022-12-22T09:55:13Z</time>
      </trkpt>
      <trkpt lat="43.67277" lon="5.63318">
        <ele>290.8</ele>
        <time>2022-12-22T09:55:33Z</time>
      </trkpt>
      <trkpt lat="43.67277" lon="5.63318">
        <ele>290.8</ele>
        <time>2022-12-22T09:55:54Z</time>
      </trkpt>
      <trkpt lat="43.67278" lon="5.6331">
        <ele>289.1</ele>
        <time>2022-12-22T09:56:14Z</time>
      </trkpt>
      <trkpt lat="43.6728" lon="5.6328">
        <ele>289.9</ele>
        <time>2022-12-22T09:56:35Z</time>
      </trkpt>
      <trkpt lat="43.67268" lon="5.63253">
        <ele>291.5</ele>
        <time>2022-12-22T09:56:56Z</time>
      </trkpt>
      <trkpt lat="43.67258" lon="5.63241">
        <ele>293.1</ele>
        <time>2022-12-22T09:57:17Z</time>
      </trkpt>
      <trkpt lat="43.67266" lon="5.63234">
        <ele>292</ele>
        <time>2022-12-22T09:57:38Z</time>
      </trkpt>
      <trkpt lat="43.67279" lon="5.63216">
        <ele>291.9</ele>
        <time>2022-12-22T09:57:59Z</time>
      </trkpt>
      <trkpt lat="43.6729" lon="5.63196">
        <ele>294.9</ele>
        <time>2022-12-22T09:58:20Z</time>
      </trkpt>
      <trkpt lat="43.67294" lon="5.63172">
        <ele>295</ele>
        <time>2022-12-22T09:58:40Z</time>
      </trkpt>
      <trkpt lat="43.67298" lon="5.63148">
        <ele>296.7</ele>
        <time>2022-12-22T09:59:00Z</time>
      </trkpt>
      <trkpt lat="43.67306" lon="5.63131">
        <ele>298.9</ele>
        <time>2022-12-22T09:59:20Z</time>
      </trkpt>
      <trkpt lat="43.67318" lon="5.63118">
        <ele>301.2</ele>
        <time>2022-12-22T09:59:41Z</time>
      </trkpt>
      <trkpt lat="43.6733" lon="5.63104">
        <ele>302.7</ele>
        <time>2022-12-22T10:00:02Z</time>
      </trkpt>
      <trkpt lat="43.67343" lon="5.63097">
        <ele>305</ele>
        <time>2022-12-22T10:00:22Z</time>
      </trkpt>
      <trkpt lat="43.67357" lon="5.63091">
        <ele>307</ele>
        <time>2022-12-22T10:00:43Z</time>
      </trkpt>
      <trkpt lat="43.67374" lon="5.63084">
        <ele>310.4</ele>
        <time>2022-12-22T10:01:04Z</time>
      </trkpt>
      <trkpt lat="43.67388" lon="5.63079">
        <ele>312.4</ele>
        <time>2022-12-22T10:01:24Z</time>
      </trkpt>
      <trkpt lat="43.67399" lon="5.63069">
        <ele>312.8</ele>
        <time>2022-12-22T10:01:44Z</time>
      </trkpt>
      <trkpt lat="43.6741" lon="5.63056">
        <ele>314.9</ele>
        <time>2022-12-22T10:02:05Z</time>
      </trkpt>
      <trkpt lat="43.67423" lon="5.6305">
        <ele>319.2</ele>
        <time>2022-12-22T10:02:26Z</time>
      </trkpt>
      <trkpt lat="43.67432" lon="5.63043">
        <ele>321.5</ele>
        <time>2022-12-22T10:02:46Z</time>
      </trkpt>
      <trkpt lat="43.67439" lon="5.63039">
        <ele>322.8</ele>
        <time>2022-12-22T10:03:06Z</time>
      </trkpt>
      <trkpt lat="43.67439" lon="5.63039">
        <ele>322.8</ele>
        <time>2022-12-22T10:03:27Z</time>
      </trkpt>
      <trkpt lat="43.67451" lon="5.63039">
        <ele>325.4</ele>
        <time>2022-12-22T10:03:47Z</time>
      </trkpt>
      <trkpt lat="43.67463" lon="5.63034">
        <ele>326.5</ele>
        <time>2022-12-22T10:04:07Z</time>
      </trkpt>
      <trkpt lat="43.67472" lon="5.63022">
        <ele>328.3</ele>
        <time>2022-12-22T10:04:27Z</time>
      </trkpt>
      <trkpt lat="43.67483" lon="5.63011">
        <ele>329.1</ele>
        <time>2022-12-22T10:04:47Z</time>
      </trkpt>
      <trkpt lat="43.67495" lon="5.63">
        <ele>332.9</ele>
        <time>2022-12-22T10:05:08Z</time>
      </trkpt>
      <trkpt lat="43.67508" lon="5.62986">
        <ele>334.2</ele>
        <time>2022-12-22T10:05:29Z</time>
      </trkpt>
      <trkpt lat="43.6752" lon="5.62973">
        <ele>337</ele>
        <time>2022-12-22T10:05:49Z</time>
      </trkpt>
      <trkpt lat="43.6753" lon="5.62959">
        <ele>339.7</ele>
        <time>2022-12-22T10:06:10Z</time>
      </trkpt>
      <trkpt lat="43.67537" lon="5.62946">
        <ele>343.6</ele>
        <time>2022-12-22T10:06:31Z</time>
      </trkpt>
      <trkpt lat="43.67543" lon="5.62933">
        <ele>347.5</ele>
        <time>2022-12-22T10:06:51Z</time>
      </trkpt>
      <trkpt lat="43.67548" lon="5.62918">
        <ele>348.2</ele>
        <time>2022-12-22T10:07:11Z</time>
      </trkpt>
      <trkpt lat="43.67552" lon="5.62902">
        <ele>352.9</ele>
        <time>2022-12-22T10:07:32Z</time>
      </trkpt>
      <trkpt lat="43.67552" lon="5.62902">
        <ele>352.9</ele>
        <time>2022-12-22T10:07:53Z</time>
      </trkpt>
      <trkpt lat="43.67552" lon="5.62902">
        <ele>352.9</ele>
        <time>2022-12-22T10:08:14Z</time>
      </trkpt>
      <trkpt lat="43.67552" lon="5.62902">
        <ele>352.9</ele>
        <time>2022-12-22T10:08:35Z</time>
      </trkpt>
      <trkpt lat="43.67552" lon="5.62902">
        <ele>352.9</ele>
        <time>2022-12-22T10:08:56Z</time>
      </trkpt>
      <trkpt lat="43.67552" lon="5.62902">
        <ele>352.9</ele>
        <time>2022-12-22T10:09:17Z</time>
      </trkpt>
      <trkpt lat="43.67552" lon="5.62902">
        <ele>352.9</ele>
        <time>2022-12-22T10:09:37Z</time>
      </trkpt>
      <trkpt lat="43.67552" lon="5.62902">
        <ele>352.9</ele>
        <time>2022-12-22T10:09:58Z</time>
      </trkpt>
      <trkpt lat="43.67552" lon="5.62902">
        <ele>352.9</ele>
        <time>2022-12-22T10:10:19Z</time>
      </trkpt>
      <trkpt lat="43.67552" lon="5.62902">
        <ele>352.9</ele>
        <time>2022-12-22T10:10:40Z</time>
      </trkpt>
      <trkpt lat="43.67552" lon="5.62902">
        <ele>352.9</ele>
        <time>2022-12-22T10:11:00Z</time>
      </trkpt>
      <trkpt lat="43.67555" lon="5.62899">
        <ele>358.8</ele>
        <time>2022-12-22T10:11:21Z</time>
      </trkpt>
      <trkpt lat="43.67567" lon="5.62889">
        <ele>360.5</ele>
        <time>2022-12-22T10:11:41Z</time>
      </trkpt>
      <trkpt lat="43.67581" lon="5.62879">
        <ele>360</ele>
        <time>2022-12-22T10:12:02Z</time>
      </trkpt>
      <trkpt lat="43.67599" lon="5.62873">
        <ele>363.1</ele>
        <time>2022-12-22T10:12:23Z</time>
      </trkpt>
      <trkpt lat="43.67613" lon="5.6287">
        <ele>364.9</ele>
        <time>2022-12-22T10:12:43Z</time>
      </trkpt>
      <trkpt lat="43.67623" lon="5.62861">
        <ele>367.3</ele>
        <time>2022-12-22T10:13:04Z</time>
      </trkpt>
      <trkpt lat="43.67637" lon="5.62847">
        <ele>369.6</ele>
        <time>2022-12-22T10:13:24Z</time>
      </trkpt>
      <trkpt lat="43.67652" lon="5.62836">
        <ele>372.9</ele>
        <time>2022-12-22T10:13:45Z</time>
      </trkpt>
      <trkpt lat="43.67663" lon="5.62826">
        <ele>375.3</ele>
        <time>2022-12-22T10:14:05Z</time>
      </trkpt>
      <trkpt lat="43.67674" lon="5.62816">
        <ele>376.1</ele>
        <time>2022-12-22T10:14:25Z</time>
      </trkpt>
      <trkpt lat="43.67688" lon="5.62808">
        <ele>380.5</ele>
        <time>2022-12-22T10:14:46Z</time>
      </trkpt>
      <trkpt lat="43.677" lon="5.62801">
        <ele>383.2</ele>
        <time>2022-12-22T10:15:07Z</time>
      </trkpt>
      <trkpt lat="43.67716" lon="5.62784">
        <ele>381.9</ele>
        <time>2022-12-22T10:15:28Z</time>
      </trkpt>
      <trkpt lat="43.67736" lon="5.62775">
        <ele>384.7</ele>
        <time>2022-12-22T10:15:48Z</time>
      </trkpt>
      <trkpt lat="43.67758" lon="5.62762">
        <ele>384.6</ele>
        <time>2022-12-22T10:16:08Z</time>
      </trkpt>
      <trkpt lat="43.67783" lon="5.62761">
        <ele>387.2</ele>
        <time>2022-12-22T10:16:29Z</time>
      </trkpt>
      <trkpt lat="43.67803" lon="5.62752">
        <ele>384.3</ele>
        <time>2022-12-22T10:16:50Z</time>
      </trkpt>
      <trkpt lat="43.67822" lon="5.62747">
        <ele>388.8</ele>
        <time>2022-12-22T10:17:10Z</time>
      </trkpt>
      <trkpt lat="43.67843" lon="5.62738">
        <ele>391.9</ele>
        <time>2022-12-22T10:17:31Z</time>
      </trkpt>
      <trkpt lat="43.67859" lon="5.62728">
        <ele>392.5</ele>
        <time>2022-12-22T10:17:51Z</time>
      </trkpt>
      <trkpt lat="43.67874" lon="5.62724">
        <ele>394.2</ele>
        <time>2022-12-22T10:18:12Z</time>
      </trkpt>
      <trkpt lat="43.67874" lon="5.62726">
        <ele>394.3</ele>
        <time>2022-12-22T10:18:33Z</time>
      </trkpt>
      <trkpt lat="43.67874" lon="5.62726">
        <ele>394.3</ele>
        <time>2022-12-22T10:18:54Z</time>
      </trkpt>
      <trkpt lat="43.67874" lon="5.62726">
        <ele>394.3</ele>
        <time>2022-12-22T10:19:15Z</time>
      </trkpt>
      <trkpt lat="43.67874" lon="5.62726">
        <ele>394.3</ele>
        <time>2022-12-22T10:19:35Z</time>
      </trkpt>
      <trkpt lat="43.67874" lon="5.62726">
        <ele>394.3</ele>
        <time>2022-12-22T10:19:56Z</time>
      </trkpt>
      <trkpt lat="43.67874" lon="5.62726">
        <ele>394.3</ele>
        <time>2022-12-22T10:20:16Z</time>
      </trkpt>
      <trkpt lat="43.67874" lon="5.62726">
        <ele>394.3</ele>
        <time>2022-12-22T10:20:37Z</time>
      </trkpt>
      <trkpt lat="43.67874" lon="5.62726">
        <ele>394.3</ele>
        <time>2022-12-22T10:20:58Z</time>
      </trkpt>
      <trkpt lat="43.6788" lon="5.62722">
        <ele>394.1</ele>
        <time>2022-12-22T10:21:19Z</time>
      </trkpt>
      <trkpt lat="43.67884" lon="5.62724">
        <ele>394.7</ele>
        <time>2022-12-22T10:21:39Z</time>
      </trkpt>
      <trkpt lat="43.67903" lon="5.6272">
        <ele>396.8</ele>
        <time>2022-12-22T10:22:00Z</time>
      </trkpt>
      <trkpt lat="43.67928" lon="5.62713">
        <ele>399</ele>
        <time>2022-12-22T10:22:21Z</time>
      </trkpt>
      <trkpt lat="43.67942" lon="5.627">
        <ele>403.3</ele>
        <time>2022-12-22T10:22:41Z</time>
      </trkpt>
      <trkpt lat="43.67958" lon="5.62692">
        <ele>407.5</ele>
        <time>2022-12-22T10:23:01Z</time>
      </trkpt>
      <trkpt lat="43.67965" lon="5.62693">
        <ele>408</ele>
        <time>2022-12-22T10:23:22Z</time>
      </trkpt>
      <trkpt lat="43.67983" lon="5.62692">
        <ele>406.1</ele>
        <time>2022-12-22T10:23:42Z</time>
      </trkpt>
      <trkpt lat="43.68" lon="5.62693">
        <ele>411.2</ele>
        <time>2022-12-22T10:24:03Z</time>
      </trkpt>
      <trkpt lat="43.68015" lon="5.62691">
        <ele>414</ele>
        <time>2022-12-22T10:24:24Z</time>
      </trkpt>
      <trkpt lat="43.68031" lon="5.62684">
        <ele>417.3</ele>
        <time>2022-12-22T10:24:45Z</time>
      </trkpt>
      <trkpt lat="43.6805" lon="5.6268">
        <ele>418</ele>
        <time>2022-12-22T10:25:05Z</time>
      </trkpt>
      <trkpt lat="43.68071" lon="5.62678">
        <ele>418.2</ele>
        <time>2022-12-22T10:25:26Z</time>
      </trkpt>
      <trkpt lat="43.6809" lon="5.62677">
        <ele>418.6</ele>
        <time>2022-12-22T10:25:46Z</time>
      </trkpt>
      <trkpt lat="43.68112" lon="5.6268">
        <ele>421.1</ele>
        <time>2022-12-22T10:26:07Z</time>
      </trkpt>
      <trkpt lat="43.68133" lon="5.62681">
        <ele>420.6</ele>
        <time>2022-12-22T10:26:28Z</time>
      </trkpt>
      <trkpt lat="43.68149" lon="5.62683">
        <ele>418.3</ele>
        <time>2022-12-22T10:26:48Z</time>
      </trkpt>
      <trkpt lat="43.68165" lon="5.62684">
        <ele>421.4</ele>
        <time>2022-12-22T10:27:08Z</time>
      </trkpt>
      <trkpt lat="43.68184" lon="5.62681">
        <ele>424.3</ele>
        <time>2022-12-22T10:27:29Z</time>
      </trkpt>
      <trkpt lat="43.68199" lon="5.62672">
        <ele>424.3</ele>
        <time>2022-12-22T10:27:50Z</time>
      </trkpt>
      <trkpt lat="43.68213" lon="5.62656">
        <ele>426.5</ele>
        <time>2022-12-22T10:28:10Z</time>
      </trkpt>
      <trkpt lat="43.68227" lon="5.62636">
        <ele>427</ele>
        <time>2022-12-22T10:28:30Z</time>
      </trkpt>
      <trkpt lat="43.68239" lon="5.62613">
        <ele>432.7</ele>
        <time>2022-12-22T10:28:51Z</time>
      </trkpt>
      <trkpt lat="43.68239" lon="5.62609">
        <ele>434.9</ele>
        <time>2022-12-22T10:29:12Z</time>
      </trkpt>
      <trkpt lat="43.68242" lon="5.62597">
        <ele>434.5</ele>
        <time>2022-12-22T10:29:32Z</time>
      </trkpt>
      <trkpt lat="43.68245" lon="5.62566">
        <ele>436.2</ele>
        <time>2022-12-22T10:29:53Z</time>
      </trkpt>
      <trkpt lat="43.68252" lon="5.62541">
        <ele>441.6</ele>
        <time>2022-12-22T10:30:13Z</time>
      </trkpt>
      <trkpt lat="43.68262" lon="5.62545">
        <ele>444.4</ele>
        <time>2022-12-22T10:30:35Z</time>
      </trkpt>
      <trkpt lat="43.68262" lon="5.62546">
        <ele>445</ele>
        <time>2022-12-22T10:30:56Z</time>
      </trkpt>
      <trkpt lat="43.68262" lon="5.62546">
        <ele>445</ele>
        <time>2022-12-22T10:31:16Z</time>
      </trkpt>
      <trkpt lat="43.68275" lon="5.62547">
        <ele>449.1</ele>
        <time>2022-12-22T10:31:36Z</time>
      </trkpt>
      <trkpt lat="43.68281" lon="5.62527">
        <ele>450</ele>
        <time>2022-12-22T10:31:57Z</time>
      </trkpt>
      <trkpt lat="43.68291" lon="5.62499">
        <ele>448.2</ele>
        <time>2022-12-22T10:32:18Z</time>
      </trkpt>
      <trkpt lat="43.6829" lon="5.62494">
        <ele>448.3</ele>
        <time>2022-12-22T10:32:38Z</time>
      </trkpt>
      <trkpt lat="43.68292" lon="5.62485">
        <ele>447.5</ele>
        <time>2022-12-22T10:32:59Z</time>
      </trkpt>
      <trkpt lat="43.68294" lon="5.62476">
        <ele>448.5</ele>
        <time>2022-12-22T10:33:19Z</time>
      </trkpt>
      <trkpt lat="43.68299" lon="5.62449">
        <ele>448.4</ele>
        <time>2022-12-22T10:33:39Z</time>
      </trkpt>
      <trkpt lat="43.68309" lon="5.62421">
        <ele>446.5</ele>
        <time>2022-12-22T10:34:00Z</time>
      </trkpt>
      <trkpt lat="43.68319" lon="5.62391">
        <ele>450.3</ele>
        <time>2022-12-22T10:34:21Z</time>
      </trkpt>
      <trkpt lat="43.68329" lon="5.62363">
        <ele>447.5</ele>
        <time>2022-12-22T10:34:42Z</time>
      </trkpt>
      <trkpt lat="43.68335" lon="5.62336">
        <ele>449</ele>
        <time>2022-12-22T10:35:02Z</time>
      </trkpt>
      <trkpt lat="43.68341" lon="5.62305">
        <ele>452.6</ele>
        <time>2022-12-22T10:35:23Z</time>
      </trkpt>
      <trkpt lat="43.68349" lon="5.62282">
        <ele>452.3</ele>
        <time>2022-12-22T10:35:43Z</time>
      </trkpt>
      <trkpt lat="43.68358" lon="5.62254">
        <ele>453.7</ele>
        <time>2022-12-22T10:36:03Z</time>
      </trkpt>
      <trkpt lat="43.68369" lon="5.62224">
        <ele>455.3</ele>
        <time>2022-12-22T10:36:24Z</time>
      </trkpt>
      <trkpt lat="43.68369" lon="5.62194">
        <ele>457.7</ele>
        <time>2022-12-22T10:36:45Z</time>
      </trkpt>
      <trkpt lat="43.68375" lon="5.62168">
        <ele>456.7</ele>
        <time>2022-12-22T10:37:06Z</time>
      </trkpt>
      <trkpt lat="43.6839" lon="5.62151">
        <ele>458.2</ele>
        <time>2022-12-22T10:37:26Z</time>
      </trkpt>
      <trkpt lat="43.68408" lon="5.62132">
        <ele>462.6</ele>
        <time>2022-12-22T10:37:46Z</time>
      </trkpt>
      <trkpt lat="43.68416" lon="5.62109">
        <ele>460.3</ele>
        <time>2022-12-22T10:38:07Z</time>
      </trkpt>
      <trkpt lat="43.68409" lon="5.62087">
        <ele>459.7</ele>
        <time>2022-12-22T10:38:28Z</time>
      </trkpt>
      <trkpt lat="43.68419" lon="5.62061">
        <ele>461.8</ele>
        <time>2022-12-22T10:38:49Z</time>
      </trkpt>
      <trkpt lat="43.68434" lon="5.62039">
        <ele>464.4</ele>
        <time>2022-12-22T10:39:09Z</time>
      </trkpt>
      <trkpt lat="43.68434" lon="5.62018">
        <ele>464.3</ele>
        <time>2022-12-22T10:39:30Z</time>
      </trkpt>
      <trkpt lat="43.68414" lon="5.62012">
        <ele>461.1</ele>
        <time>2022-12-22T10:39:50Z</time>
      </trkpt>
      <trkpt lat="43.68405" lon="5.61987">
        <ele>465</ele>
        <time>2022-12-22T10:40:11Z</time>
      </trkpt>
      <trkpt lat="43.68413" lon="5.61967">
        <ele>465.2</ele>
        <time>2022-12-22T10:40:31Z</time>
      </trkpt>
      <trkpt lat="43.6842" lon="5.61944">
        <ele>466.1</ele>
        <time>2022-12-22T10:40:52Z</time>
      </trkpt>
      <trkpt lat="43.68425" lon="5.6192">
        <ele>470</ele>
        <time>2022-12-22T10:41:12Z</time>
      </trkpt>
      <trkpt lat="43.68435" lon="5.61894">
        <ele>471</ele>
        <time>2022-12-22T10:41:33Z</time>
      </trkpt>
      <trkpt lat="43.68435" lon="5.61888">
        <ele>473.8</ele>
        <time>2022-12-22T10:41:53Z</time>
      </trkpt>
      <trkpt lat="43.68442" lon="5.61873">
        <ele>473.9</ele>
        <time>2022-12-22T10:42:14Z</time>
      </trkpt>
      <trkpt lat="43.68455" lon="5.61851">
        <ele>474.3</ele>
        <time>2022-12-22T10:42:34Z</time>
      </trkpt>
      <trkpt lat="43.6847" lon="5.61831">
        <ele>474.5</ele>
        <time>2022-12-22T10:42:54Z</time>
      </trkpt>
      <trkpt lat="43.68488" lon="5.61816">
        <ele>472.5</ele>
        <time>2022-12-22T10:43:14Z</time>
      </trkpt>
      <trkpt lat="43.68506" lon="5.61801">
        <ele>473.2</ele>
        <time>2022-12-22T10:43:35Z</time>
      </trkpt>
      <trkpt lat="43.68519" lon="5.6178">
        <ele>475</ele>
        <time>2022-12-22T10:43:55Z</time>
      </trkpt>
      <trkpt lat="43.68529" lon="5.6175">
        <ele>478.8</ele>
        <time>2022-12-22T10:44:16Z</time>
      </trkpt>
      <trkpt lat="43.68539" lon="5.61725">
        <ele>480.8</ele>
        <time>2022-12-22T10:44:36Z</time>
      </trkpt>
      <trkpt lat="43.68552" lon="5.61699">
        <ele>481.7</ele>
        <time>2022-12-22T10:44:57Z</time>
      </trkpt>
      <trkpt lat="43.68567" lon="5.61682">
        <ele>483.4</ele>
        <time>2022-12-22T10:45:18Z</time>
      </trkpt>
      <trkpt lat="43.68584" lon="5.61679">
        <ele>485.6</ele>
        <time>2022-12-22T10:45:39Z</time>
      </trkpt>
      <trkpt lat="43.68602" lon="5.61686">
        <ele>484.9</ele>
        <time>2022-12-22T10:45:59Z</time>
      </trkpt>
      <trkpt lat="43.68604" lon="5.61684">
        <ele>486.5</ele>
        <time>2022-12-22T10:46:19Z</time>
      </trkpt>
      <trkpt lat="43.68604" lon="5.61684">
        <ele>486.5</ele>
        <time>2022-12-22T10:46:40Z</time>
      </trkpt>
      <trkpt lat="43.68604" lon="5.61684">
        <ele>486.5</ele>
        <time>2022-12-22T10:47:01Z</time>
      </trkpt>
      <trkpt lat="43.68604" lon="5.61684">
        <ele>486.5</ele>
        <time>2022-12-22T10:47:21Z</time>
      </trkpt>
      <trkpt lat="43.68612" lon="5.61688">
        <ele>492.1</ele>
        <time>2022-12-22T10:47:41Z</time>
      </trkpt>
      <trkpt lat="43.68632" lon="5.61695">
        <ele>493.1</ele>
        <time>2022-12-22T10:48:02Z</time>
      </trkpt>
      <trkpt lat="43.68648" lon="5.617">
        <ele>492.4</ele>
        <time>2022-12-22T10:48:22Z</time>
      </trkpt>
      <trkpt lat="43.68673" lon="5.61702">
        <ele>496.5</ele>
        <time>2022-12-22T10:48:43Z</time>
      </trkpt>
      <trkpt lat="43.68688" lon="5.61701">
        <ele>496.3</ele>
        <time>2022-12-22T10:49:03Z</time>
      </trkpt>
      <trkpt lat="43.68707" lon="5.61694">
        <ele>495.6</ele>
        <time>2022-12-22T10:49:23Z</time>
      </trkpt>
      <trkpt lat="43.68719" lon="5.61688">
        <ele>499.6</ele>
        <time>2022-12-22T10:49:44Z</time>
      </trkpt>
      <trkpt lat="43.68719" lon="5.61688">
        <ele>499</ele>
        <time>2022-12-22T10:50:04Z</time>
      </trkpt>
      <trkpt lat="43.6873" lon="5.61677">
        <ele>502.1</ele>
        <time>2022-12-22T10:50:25Z</time>
      </trkpt>
      <trkpt lat="43.68745" lon="5.61671">
        <ele>501.8</ele>
        <time>2022-12-22T10:50:45Z</time>
      </trkpt>
      <trkpt lat="43.68758" lon="5.61689">
        <ele>499.3</ele>
        <time>2022-12-22T10:51:05Z</time>
      </trkpt>
      <trkpt lat="43.68774" lon="5.61709">
        <ele>499</ele>
        <time>2022-12-22T10:51:25Z</time>
      </trkpt>
      <trkpt lat="43.68788" lon="5.6173">
        <ele>496.3</ele>
        <time>2022-12-22T10:51:46Z</time>
      </trkpt>
      <trkpt lat="43.68804" lon="5.61746">
        <ele>494.1</ele>
        <time>2022-12-22T10:52:07Z</time>
      </trkpt>
      <trkpt lat="43.68819" lon="5.61763">
        <ele>486.9</ele>
        <time>2022-12-22T10:52:28Z</time>
      </trkpt>
      <trkpt lat="43.68834" lon="5.61786">
        <ele>485.6</ele>
        <time>2022-12-22T10:52:48Z</time>
      </trkpt>
      <trkpt lat="43.68852" lon="5.61799">
        <ele>488.5</ele>
        <time>2022-12-22T10:53:09Z</time>
      </trkpt>
      <trkpt lat="43.68852" lon="5.61798">
        <ele>490.7</ele>
        <time>2022-12-22T10:53:30Z</time>
      </trkpt>
      <trkpt lat="43.68858" lon="5.61809">
        <ele>485.3</ele>
        <time>2022-12-22T10:53:51Z</time>
      </trkpt>
      <trkpt lat="43.68872" lon="5.61833">
        <ele>481.8</ele>
        <time>2022-12-22T10:54:11Z</time>
      </trkpt>
      <trkpt lat="43.68888" lon="5.61857">
        <ele>484.4</ele>
        <time>2022-12-22T10:54:31Z</time>
      </trkpt>
      <trkpt lat="43.68904" lon="5.6188">
        <ele>482.5</ele>
        <time>2022-12-22T10:54:51Z</time>
      </trkpt>
      <trkpt lat="43.68919" lon="5.61903">
        <ele>484.4</ele>
        <time>2022-12-22T10:55:12Z</time>
      </trkpt>
      <trkpt lat="43.68934" lon="5.61929">
        <ele>484.6</ele>
        <time>2022-12-22T10:55:33Z</time>
      </trkpt>
      <trkpt lat="43.68943" lon="5.61955">
        <ele>483.7</ele>
        <time>2022-12-22T10:55:54Z</time>
      </trkpt>
      <trkpt lat="43.68959" lon="5.6197">
        <ele>487.2</ele>
        <time>2022-12-22T10:56:15Z</time>
      </trkpt>
      <trkpt lat="43.68965" lon="5.61979">
        <ele>486.8</ele>
        <time>2022-12-22T10:56:36Z</time>
      </trkpt>
      <trkpt lat="43.68977" lon="5.61989">
        <ele>488.6</ele>
        <time>2022-12-22T10:56:56Z</time>
      </trkpt>
      <trkpt lat="43.68996" lon="5.61987">
        <ele>490.3</ele>
        <time>2022-12-22T10:57:17Z</time>
      </trkpt>
      <trkpt lat="43.68996" lon="5.61987">
        <ele>490.6</ele>
        <time>2022-12-22T10:57:37Z</time>
      </trkpt>
      <trkpt lat="43.69011" lon="5.61982">
        <ele>493</ele>
        <time>2022-12-22T10:57:58Z</time>
      </trkpt>
      <trkpt lat="43.69032" lon="5.61979">
        <ele>494.2</ele>
        <time>2022-12-22T10:58:19Z</time>
      </trkpt>
      <trkpt lat="43.69051" lon="5.6198">
        <ele>495.8</ele>
        <time>2022-12-22T10:58:39Z</time>
      </trkpt>
      <trkpt lat="43.69073" lon="5.61984">
        <ele>495.6</ele>
        <time>2022-12-22T10:59:00Z</time>
      </trkpt>
      <trkpt lat="43.69092" lon="5.6199">
        <ele>496.3</ele>
        <time>2022-12-22T10:59:20Z</time>
      </trkpt>
      <trkpt lat="43.69113" lon="5.61995">
        <ele>495.3</ele>
        <time>2022-12-22T10:59:41Z</time>
      </trkpt>
      <trkpt lat="43.69129" lon="5.62009">
        <ele>495.1</ele>
        <time>2022-12-22T11:00:02Z</time>
      </trkpt>
      <trkpt lat="43.69146" lon="5.62023">
        <ele>493.4</ele>
        <time>2022-12-22T11:00:23Z</time>
      </trkpt>
      <trkpt lat="43.69162" lon="5.62037">
        <ele>494.9</ele>
        <time>2022-12-22T11:00:43Z</time>
      </trkpt>
      <trkpt lat="43.6918" lon="5.62043">
        <ele>498.6</ele>
        <time>2022-12-22T11:01:03Z</time>
      </trkpt>
      <trkpt lat="43.69199" lon="5.62052">
        <ele>503.3</ele>
        <time>2022-12-22T11:01:24Z</time>
      </trkpt>
      <trkpt lat="43.69216" lon="5.62063">
        <ele>500.3</ele>
        <time>2022-12-22T11:01:45Z</time>
      </trkpt>
      <trkpt lat="43.69228" lon="5.62078">
        <ele>502.2</ele>
        <time>2022-12-22T11:02:06Z</time>
      </trkpt>
      <trkpt lat="43.69243" lon="5.62095">
        <ele>504.1</ele>
        <time>2022-12-22T11:02:27Z</time>
      </trkpt>
      <trkpt lat="43.69252" lon="5.62104">
        <ele>504.7</ele>
        <time>2022-12-22T11:02:48Z</time>
      </trkpt>
      <trkpt lat="43.69263" lon="5.62114">
        <ele>504.7</ele>
        <time>2022-12-22T11:03:08Z</time>
      </trkpt>
      <trkpt lat="43.69277" lon="5.62129">
        <ele>505</ele>
        <time>2022-12-22T11:03:29Z</time>
      </trkpt>
      <trkpt lat="43.69293" lon="5.62146">
        <ele>510.3</ele>
        <time>2022-12-22T11:03:49Z</time>
      </trkpt>
      <trkpt lat="43.69309" lon="5.62158">
        <ele>510.7</ele>
        <time>2022-12-22T11:04:10Z</time>
      </trkpt>
      <trkpt lat="43.69321" lon="5.62172">
        <ele>510.2</ele>
        <time>2022-12-22T11:04:31Z</time>
      </trkpt>
      <trkpt lat="43.69335" lon="5.62175">
        <ele>511.2</ele>
        <time>2022-12-22T11:04:51Z</time>
      </trkpt>
      <trkpt lat="43.6934" lon="5.62188">
        <ele>511.6</ele>
        <time>2022-12-22T11:05:12Z</time>
      </trkpt>
      <trkpt lat="43.69341" lon="5.62199">
        <ele>508.6</ele>
        <time>2022-12-22T11:05:32Z</time>
      </trkpt>
      <trkpt lat="43.69344" lon="5.62203">
        <ele>506.8</ele>
        <time>2022-12-22T11:05:52Z</time>
      </trkpt>
      <trkpt lat="43.69342" lon="5.62204">
        <ele>506.3</ele>
        <time>2022-12-22T11:06:13Z</time>
      </trkpt>
      <trkpt lat="43.69342" lon="5.62207">
        <ele>505.5</ele>
        <time>2022-12-22T11:06:34Z</time>
      </trkpt>
      <trkpt lat="43.69342" lon="5.62207">
        <ele>505.5</ele>
        <time>2022-12-22T11:06:54Z</time>
      </trkpt>
      <trkpt lat="43.69342" lon="5.62207">
        <ele>505.5</ele>
        <time>2022-12-22T11:07:14Z</time>
      </trkpt>
      <trkpt lat="43.69342" lon="5.62207">
        <ele>505.5</ele>
        <time>2022-12-22T11:07:35Z</time>
      </trkpt>
      <trkpt lat="43.69342" lon="5.62207">
        <ele>505.5</ele>
        <time>2022-12-22T11:07:55Z</time>
      </trkpt>
      <trkpt lat="43.69342" lon="5.62207">
        <ele>505.5</ele>
        <time>2022-12-22T11:08:15Z</time>
      </trkpt>
      <trkpt lat="43.69342" lon="5.62207">
        <ele>505.5</ele>
        <time>2022-12-22T11:08:35Z</time>
      </trkpt>
      <trkpt lat="43.69342" lon="5.62207">
        <ele>505.5</ele>
        <time>2022-12-22T11:08:56Z</time>
      </trkpt>
      <trkpt lat="43.69342" lon="5.62207">
        <ele>505.5</ele>
        <time>2022-12-22T11:09:17Z</time>
      </trkpt>
      <trkpt lat="43.69342" lon="5.62207">
        <ele>505.5</ele>
        <time>2022-12-22T11:09:38Z</time>
      </trkpt>
      <trkpt lat="43.69342" lon="5.62207">
        <ele>505.5</ele>
        <time>2022-12-22T11:09:59Z</time>
      </trkpt>
      <trkpt lat="43.69342" lon="5.62207">
        <ele>505.5</ele>
        <time>2022-12-22T11:10:20Z</time>
      </trkpt>
      <trkpt lat="43.69342" lon="5.62207">
        <ele>505.5</ele>
        <time>2022-12-22T11:10:40Z</time>
      </trkpt>
      <trkpt lat="43.69342" lon="5.62207">
        <ele>505.5</ele>
        <time>2022-12-22T11:11:01Z</time>
      </trkpt>
      <trkpt lat="43.69342" lon="5.62207">
        <ele>505.5</ele>
        <time>2022-12-22T11:11:22Z</time>
      </trkpt>
      <trkpt lat="43.69342" lon="5.62207">
        <ele>505.5</ele>
        <time>2022-12-22T11:11:42Z</time>
      </trkpt>
      <trkpt lat="43.69342" lon="5.62207">
        <ele>505.5</ele>
        <time>2022-12-22T11:12:03Z</time>
      </trkpt>
      <trkpt lat="43.69342" lon="5.62207">
        <ele>505.5</ele>
        <time>2022-12-22T11:12:24Z</time>
      </trkpt>
      <trkpt lat="43.69342" lon="5.62207">
        <ele>505.5</ele>
        <time>2022-12-22T11:12:45Z</time>
      </trkpt>
      <trkpt lat="43.69342" lon="5.62207">
        <ele>505.5</ele>
        <time>2022-12-22T11:13:05Z</time>
      </trkpt>
      <trkpt lat="43.69342" lon="5.62207">
        <ele>505.5</ele>
        <time>2022-12-22T11:13:25Z</time>
      </trkpt>
      <trkpt lat="43.69342" lon="5.62207">
        <ele>505.5</ele>
        <time>2022-12-22T11:13:46Z</time>
      </trkpt>
      <trkpt lat="43.69342" lon="5.62207">
        <ele>505.5</ele>
        <time>2022-12-22T11:14:07Z</time>
      </trkpt>
      <trkpt lat="43.69342" lon="5.62207">
        <ele>505.5</ele>
        <time>2022-12-22T11:14:27Z</time>
      </trkpt>
      <trkpt lat="43.69342" lon="5.62207">
        <ele>505.5</ele>
        <time>2022-12-22T11:14:48Z</time>
      </trkpt>
      <trkpt lat="43.69342" lon="5.62207">
        <ele>505.5</ele>
        <time>2022-12-22T11:15:09Z</time>
      </trkpt>
      <trkpt lat="43.69342" lon="5.62207">
        <ele>505.5</ele>
        <time>2022-12-22T11:15:29Z</time>
      </trkpt>
      <trkpt lat="43.69342" lon="5.62207">
        <ele>505.5</ele>
        <time>2022-12-22T11:15:50Z</time>
      </trkpt>
      <trkpt lat="43.69342" lon="5.62207">
        <ele>505.5</ele>
        <time>2022-12-22T11:16:10Z</time>
      </trkpt>
      <trkpt lat="43.69342" lon="5.62207">
        <ele>505.5</ele>
        <time>2022-12-22T11:16:30Z</time>
      </trkpt>
      <trkpt lat="43.69342" lon="5.62207">
        <ele>505.5</ele>
        <time>2022-12-22T11:16:51Z</time>
      </trkpt>
      <trkpt lat="43.69342" lon="5.62207">
        <ele>505.5</ele>
        <time>2022-12-22T11:17:12Z</time>
      </trkpt>
      <trkpt lat="43.69342" lon="5.62207">
        <ele>505.5</ele>
        <time>2022-12-22T11:17:33Z</time>
      </trkpt>
      <trkpt lat="43.69342" lon="5.62207">
        <ele>505.5</ele>
        <time>2022-12-22T11:17:54Z</time>
      </trkpt>
      <trkpt lat="43.69342" lon="5.62207">
        <ele>505.5</ele>
        <time>2022-12-22T11:18:14Z</time>
      </trkpt>
      <trkpt lat="43.69342" lon="5.62207">
        <ele>505.5</ele>
        <time>2022-12-22T11:18:35Z</time>
      </trkpt>
      <trkpt lat="43.69342" lon="5.62207">
        <ele>505.5</ele>
        <time>2022-12-22T11:18:56Z</time>
      </trkpt>
      <trkpt lat="43.69342" lon="5.62207">
        <ele>505.5</ele>
        <time>2022-12-22T11:19:16Z</time>
      </trkpt>
      <trkpt lat="43.69342" lon="5.62207">
        <ele>505.5</ele>
        <time>2022-12-22T11:19:37Z</time>
      </trkpt>
      <trkpt lat="43.69342" lon="5.62207">
        <ele>505.5</ele>
        <time>2022-12-22T11:19:58Z</time>
      </trkpt>
      <trkpt lat="43.69342" lon="5.62207">
        <ele>505.5</ele>
        <time>2022-12-22T11:20:19Z</time>
      </trkpt>
      <trkpt lat="43.69342" lon="5.62207">
        <ele>505.5</ele>
        <time>2022-12-22T11:20:40Z</time>
      </trkpt>
      <trkpt lat="43.69342" lon="5.62207">
        <ele>505.5</ele>
        <time>2022-12-22T11:21:00Z</time>
      </trkpt>
      <trkpt lat="43.69342" lon="5.62207">
        <ele>505.5</ele>
        <time>2022-12-22T11:21:20Z</time>
      </trkpt>
      <trkpt lat="43.69342" lon="5.62207">
        <ele>505.5</ele>
        <time>2022-12-22T11:21:41Z</time>
      </trkpt>
      <trkpt lat="43.69342" lon="5.62207">
        <ele>505.5</ele>
        <time>2022-12-22T11:22:02Z</time>
      </trkpt>
      <trkpt lat="43.69342" lon="5.62207">
        <ele>505.5</ele>
        <time>2022-12-22T11:22:22Z</time>
      </trkpt>
      <trkpt lat="43.69342" lon="5.62207">
        <ele>505.5</ele>
        <time>2022-12-22T11:22:43Z</time>
      </trkpt>
      <trkpt lat="43.69342" lon="5.62207">
        <ele>505.5</ele>
        <time>2022-12-22T11:23:03Z</time>
      </trkpt>
      <trkpt lat="43.69342" lon="5.62207">
        <ele>505.5</ele>
        <time>2022-12-22T11:23:24Z</time>
      </trkpt>
      <trkpt lat="43.69342" lon="5.62207">
        <ele>505.5</ele>
        <time>2022-12-22T11:23:44Z</time>
      </trkpt>
      <trkpt lat="43.69342" lon="5.62207">
        <ele>505.5</ele>
        <time>2022-12-22T11:24:05Z</time>
      </trkpt>
      <trkpt lat="43.69342" lon="5.62207">
        <ele>505.5</ele>
        <time>2022-12-22T11:24:25Z</time>
      </trkpt>
      <trkpt lat="43.69342" lon="5.62207">
        <ele>505.5</ele>
        <time>2022-12-22T11:24:46Z</time>
      </trkpt>
      <trkpt lat="43.69342" lon="5.62207">
        <ele>505.5</ele>
        <time>2022-12-22T11:25:06Z</time>
      </trkpt>
      <trkpt lat="43.69342" lon="5.62207">
        <ele>505.5</ele>
        <time>2022-12-22T11:25:26Z</time>
      </trkpt>
      <trkpt lat="43.69342" lon="5.62207">
        <ele>505.5</ele>
        <time>2022-12-22T11:25:47Z</time>
      </trkpt>
      <trkpt lat="43.69342" lon="5.62207">
        <ele>505.5</ele>
        <time>2022-12-22T11:26:07Z</time>
      </trkpt>
      <trkpt lat="43.69342" lon="5.62207">
        <ele>505.5</ele>
        <time>2022-12-22T11:26:28Z</time>
      </trkpt>
      <trkpt lat="43.69342" lon="5.62207">
        <ele>505.5</ele>
        <time>2022-12-22T11:26:48Z</time>
      </trkpt>
      <trkpt lat="43.69342" lon="5.62207">
        <ele>505.5</ele>
        <time>2022-12-22T11:27:08Z</time>
      </trkpt>
      <trkpt lat="43.69342" lon="5.62207">
        <ele>505.5</ele>
        <time>2022-12-22T11:27:29Z</time>
      </trkpt>
      <trkpt lat="43.69342" lon="5.62207">
        <ele>505.5</ele>
        <time>2022-12-22T11:27:50Z</time>
      </trkpt>
      <trkpt lat="43.69342" lon="5.62207">
        <ele>505.5</ele>
        <time>2022-12-22T11:28:10Z</time>
      </trkpt>
      <trkpt lat="43.69342" lon="5.62207">
        <ele>505.5</ele>
        <time>2022-12-22T11:28:31Z</time>
      </trkpt>
      <trkpt lat="43.69342" lon="5.62207">
        <ele>505.5</ele>
        <time>2022-12-22T11:28:52Z</time>
      </trkpt>
      <trkpt lat="43.69342" lon="5.62207">
        <ele>505.5</ele>
        <time>2022-12-22T11:29:12Z</time>
      </trkpt>
      <trkpt lat="43.69342" lon="5.62207">
        <ele>505.5</ele>
        <time>2022-12-22T11:29:33Z</time>
      </trkpt>
      <trkpt lat="43.69342" lon="5.62207">
        <ele>505.5</ele>
        <time>2022-12-22T11:29:54Z</time>
      </trkpt>
      <trkpt lat="43.69342" lon="5.62207">
        <ele>505.5</ele>
        <time>2022-12-22T11:30:15Z</time>
      </trkpt>
      <trkpt lat="43.69342" lon="5.62207">
        <ele>505.5</ele>
        <time>2022-12-22T11:30:36Z</time>
      </trkpt>
      <trkpt lat="43.69342" lon="5.62207">
        <ele>505.5</ele>
        <time>2022-12-22T11:30:57Z</time>
      </trkpt>
      <trkpt lat="43.69342" lon="5.62207">
        <ele>505.5</ele>
        <time>2022-12-22T11:31:17Z</time>
      </trkpt>
      <trkpt lat="43.69342" lon="5.62207">
        <ele>505.5</ele>
        <time>2022-12-22T11:31:37Z</time>
      </trkpt>
      <trkpt lat="43.69342" lon="5.62207">
        <ele>505.5</ele>
        <time>2022-12-22T11:31:58Z</time>
      </trkpt>
      <trkpt lat="43.69342" lon="5.62207">
        <ele>505.5</ele>
        <time>2022-12-22T11:32:19Z</time>
      </trkpt>
      <trkpt lat="43.69342" lon="5.62207">
        <ele>505.5</ele>
        <time>2022-12-22T11:32:39Z</time>
      </trkpt>
      <trkpt lat="43.69342" lon="5.62207">
        <ele>505.5</ele>
        <time>2022-12-22T11:32:59Z</time>
      </trkpt>
      <trkpt lat="43.69342" lon="5.62207">
        <ele>505.5</ele>
        <time>2022-12-22T11:33:20Z</time>
      </trkpt>
      <trkpt lat="43.69342" lon="5.62207">
        <ele>505.5</ele>
        <time>2022-12-22T11:33:41Z</time>
      </trkpt>
      <trkpt lat="43.69342" lon="5.62207">
        <ele>505.5</ele>
        <time>2022-12-22T11:34:02Z</time>
      </trkpt>
      <trkpt lat="43.69342" lon="5.62207">
        <ele>505.5</ele>
        <time>2022-12-22T11:34:23Z</time>
      </trkpt>
      <trkpt lat="43.69342" lon="5.62207">
        <ele>505.5</ele>
        <time>2022-12-22T11:34:43Z</time>
      </trkpt>
      <trkpt lat="43.69342" lon="5.62207">
        <ele>505.5</ele>
        <time>2022-12-22T11:35:03Z</time>
      </trkpt>
      <trkpt lat="43.69342" lon="5.62207">
        <ele>505.5</ele>
        <time>2022-12-22T11:35:24Z</time>
      </trkpt>
      <trkpt lat="43.69342" lon="5.62207">
        <ele>505.5</ele>
        <time>2022-12-22T11:35:44Z</time>
      </trkpt>
      <trkpt lat="43.69342" lon="5.62207">
        <ele>505.5</ele>
        <time>2022-12-22T11:36:05Z</time>
      </trkpt>
      <trkpt lat="43.69343" lon="5.62194">
        <ele>517.7</ele>
        <time>2022-12-22T11:36:26Z</time>
      </trkpt>
      <trkpt lat="43.69343" lon="5.62194">
        <ele>517.7</ele>
        <time>2022-12-22T11:36:46Z</time>
      </trkpt>
      <trkpt lat="43.69343" lon="5.62194">
        <ele>517.7</ele>
        <time>2022-12-22T11:37:07Z</time>
      </trkpt>
      <trkpt lat="43.69343" lon="5.62194">
        <ele>517.7</ele>
        <time>2022-12-22T11:37:27Z</time>
      </trkpt>
      <trkpt lat="43.69343" lon="5.62194">
        <ele>517.7</ele>
        <time>2022-12-22T11:37:48Z</time>
      </trkpt>
      <trkpt lat="43.69343" lon="5.62194">
        <ele>517.7</ele>
        <time>2022-12-22T11:38:09Z</time>
      </trkpt>
      <trkpt lat="43.69343" lon="5.62194">
        <ele>517.7</ele>
        <time>2022-12-22T11:38:30Z</time>
      </trkpt>
      <trkpt lat="43.69343" lon="5.62194">
        <ele>517.7</ele>
        <time>2022-12-22T11:38:51Z</time>
      </trkpt>
      <trkpt lat="43.69343" lon="5.62194">
        <ele>517.7</ele>
        <time>2022-12-22T11:39:12Z</time>
      </trkpt>
      <trkpt lat="43.69343" lon="5.62194">
        <ele>517.7</ele>
        <time>2022-12-22T11:39:32Z</time>
      </trkpt>
      <trkpt lat="43.69343" lon="5.62194">
        <ele>517.7</ele>
        <time>2022-12-22T11:39:53Z</time>
      </trkpt>
      <trkpt lat="43.69343" lon="5.62194">
        <ele>517.7</ele>
        <time>2022-12-22T11:40:14Z</time>
      </trkpt>
      <trkpt lat="43.69343" lon="5.62194">
        <ele>517.7</ele>
        <time>2022-12-22T11:40:35Z</time>
      </trkpt>
      <trkpt lat="43.69343" lon="5.622">
        <ele>516.6</ele>
        <time>2022-12-22T11:40:55Z</time>
      </trkpt>
      <trkpt lat="43.69343" lon="5.622">
        <ele>516.6</ele>
        <time>2022-12-22T11:41:16Z</time>
      </trkpt>
      <trkpt lat="43.69343" lon="5.622">
        <ele>516.6</ele>
        <time>2022-12-22T11:41:37Z</time>
      </trkpt>
      <trkpt lat="43.69343" lon="5.622">
        <ele>516.6</ele>
        <time>2022-12-22T11:41:57Z</time>
      </trkpt>
      <trkpt lat="43.69343" lon="5.622">
        <ele>516.6</ele>
        <time>2022-12-22T11:42:18Z</time>
      </trkpt>
      <trkpt lat="43.69343" lon="5.622">
        <ele>516.6</ele>
        <time>2022-12-22T11:42:38Z</time>
      </trkpt>
      <trkpt lat="43.69343" lon="5.622">
        <ele>516.6</ele>
        <time>2022-12-22T11:42:59Z</time>
      </trkpt>
      <trkpt lat="43.69343" lon="5.622">
        <ele>516.6</ele>
        <time>2022-12-22T11:43:19Z</time>
      </trkpt>
      <trkpt lat="43.69343" lon="5.622">
        <ele>516.6</ele>
        <time>2022-12-22T11:43:39Z</time>
      </trkpt>
      <trkpt lat="43.69343" lon="5.622">
        <ele>516.6</ele>
        <time>2022-12-22T11:44:00Z</time>
      </trkpt>
      <trkpt lat="43.69343" lon="5.622">
        <ele>516.6</ele>
        <time>2022-12-22T11:44:21Z</time>
      </trkpt>
      <trkpt lat="43.69343" lon="5.622">
        <ele>516.6</ele>
        <time>2022-12-22T11:44:42Z</time>
      </trkpt>
      <trkpt lat="43.69343" lon="5.622">
        <ele>516.6</ele>
        <time>2022-12-22T11:45:03Z</time>
      </trkpt>
      <trkpt lat="43.69343" lon="5.622">
        <ele>516.6</ele>
        <time>2022-12-22T11:45:23Z</time>
      </trkpt>
      <trkpt lat="43.69343" lon="5.622">
        <ele>516.6</ele>
        <time>2022-12-22T11:45:44Z</time>
      </trkpt>
      <trkpt lat="43.69344" lon="5.62199">
        <ele>517.3</ele>
        <time>2022-12-22T11:46:05Z</time>
      </trkpt>
      <trkpt lat="43.69344" lon="5.62199">
        <ele>517.4</ele>
        <time>2022-12-22T11:46:25Z</time>
      </trkpt>
      <trkpt lat="43.69344" lon="5.62199">
        <ele>517.4</ele>
        <time>2022-12-22T11:46:46Z</time>
      </trkpt>
      <trkpt lat="43.69344" lon="5.62199">
        <ele>517.4</ele>
        <time>2022-12-22T11:47:06Z</time>
      </trkpt>
      <trkpt lat="43.69344" lon="5.62199">
        <ele>517.4</ele>
        <time>2022-12-22T11:47:27Z</time>
      </trkpt>
      <trkpt lat="43.69343" lon="5.62199">
        <ele>516.1</ele>
        <time>2022-12-22T11:47:48Z</time>
      </trkpt>
      <trkpt lat="43.69343" lon="5.62199">
        <ele>516.1</ele>
        <time>2022-12-22T11:48:08Z</time>
      </trkpt>
      <trkpt lat="43.69343" lon="5.62199">
        <ele>516.1</ele>
        <time>2022-12-22T11:48:29Z</time>
      </trkpt>
      <trkpt lat="43.69343" lon="5.62199">
        <ele>516.1</ele>
        <time>2022-12-22T11:48:49Z</time>
      </trkpt>
      <trkpt lat="43.69343" lon="5.62199">
        <ele>516.1</ele>
        <time>2022-12-22T11:49:09Z</time>
      </trkpt>
      <trkpt lat="43.69343" lon="5.62199">
        <ele>516.1</ele>
        <time>2022-12-22T11:49:30Z</time>
      </trkpt>
      <trkpt lat="43.69343" lon="5.62199">
        <ele>516.1</ele>
        <time>2022-12-22T11:49:51Z</time>
      </trkpt>
      <trkpt lat="43.69343" lon="5.62199">
        <ele>516.1</ele>
        <time>2022-12-22T11:50:11Z</time>
      </trkpt>
      <trkpt lat="43.69343" lon="5.62199">
        <ele>516.1</ele>
        <time>2022-12-22T11:50:31Z</time>
      </trkpt>
      <trkpt lat="43.69343" lon="5.62199">
        <ele>516.1</ele>
        <time>2022-12-22T11:50:52Z</time>
      </trkpt>
      <trkpt lat="43.69343" lon="5.62199">
        <ele>516.1</ele>
        <time>2022-12-22T11:51:12Z</time>
      </trkpt>
      <trkpt lat="43.69343" lon="5.62199">
        <ele>516.1</ele>
        <time>2022-12-22T11:51:33Z</time>
      </trkpt>
      <trkpt lat="43.69343" lon="5.62199">
        <ele>516.1</ele>
        <time>2022-12-22T11:51:54Z</time>
      </trkpt>
      <trkpt lat="43.69343" lon="5.62199">
        <ele>516.1</ele>
        <time>2022-12-22T11:52:15Z</time>
      </trkpt>
      <trkpt lat="43.69343" lon="5.62199">
        <ele>516.1</ele>
        <time>2022-12-22T11:52:36Z</time>
      </trkpt>
      <trkpt lat="43.69343" lon="5.62199">
        <ele>516.1</ele>
        <time>2022-12-22T11:52:57Z</time>
      </trkpt>
      <trkpt lat="43.69343" lon="5.62199">
        <ele>516.1</ele>
        <time>2022-12-22T11:53:18Z</time>
      </trkpt>
      <trkpt lat="43.69343" lon="5.62199">
        <ele>516.1</ele>
        <time>2022-12-22T11:53:38Z</time>
      </trkpt>
      <trkpt lat="43.69343" lon="5.62199">
        <ele>516.1</ele>
        <time>2022-12-22T11:53:59Z</time>
      </trkpt>
      <trkpt lat="43.69343" lon="5.62199">
        <ele>516.1</ele>
        <time>2022-12-22T11:54:19Z</time>
      </trkpt>
      <trkpt lat="43.69343" lon="5.62199">
        <ele>516.1</ele>
        <time>2022-12-22T11:54:40Z</time>
      </trkpt>
      <trkpt lat="43.69343" lon="5.62199">
        <ele>516.1</ele>
        <time>2022-12-22T11:55:01Z</time>
      </trkpt>
      <trkpt lat="43.69343" lon="5.62199">
        <ele>516.1</ele>
        <time>2022-12-22T11:55:21Z</time>
      </trkpt>
      <trkpt lat="43.69343" lon="5.62199">
        <ele>516.1</ele>
        <time>2022-12-22T11:55:41Z</time>
      </trkpt>
      <trkpt lat="43.69343" lon="5.62199">
        <ele>516.1</ele>
        <time>2022-12-22T11:56:02Z</time>
      </trkpt>
      <trkpt lat="43.69343" lon="5.62199">
        <ele>516.1</ele>
        <time>2022-12-22T11:56:22Z</time>
      </trkpt>
      <trkpt lat="43.69343" lon="5.62199">
        <ele>516.1</ele>
        <time>2022-12-22T11:56:43Z</time>
      </trkpt>
      <trkpt lat="43.69343" lon="5.62199">
        <ele>516.1</ele>
        <time>2022-12-22T11:57:04Z</time>
      </trkpt>
      <trkpt lat="43.69343" lon="5.62199">
        <ele>516.1</ele>
        <time>2022-12-22T11:57:25Z</time>
      </trkpt>
      <trkpt lat="43.69343" lon="5.62199">
        <ele>516.1</ele>
        <time>2022-12-22T11:57:45Z</time>
      </trkpt>
      <trkpt lat="43.69343" lon="5.62199">
        <ele>516.1</ele>
        <time>2022-12-22T11:58:05Z</time>
      </trkpt>
      <trkpt lat="43.69343" lon="5.62199">
        <ele>516.1</ele>
        <time>2022-12-22T11:58:26Z</time>
      </trkpt>
      <trkpt lat="43.69343" lon="5.62199">
        <ele>516.1</ele>
        <time>2022-12-22T11:58:46Z</time>
      </trkpt>
      <trkpt lat="43.69343" lon="5.62199">
        <ele>516.1</ele>
        <time>2022-12-22T11:59:07Z</time>
      </trkpt>
      <trkpt lat="43.69343" lon="5.62199">
        <ele>516.1</ele>
        <time>2022-12-22T11:59:27Z</time>
      </trkpt>
      <trkpt lat="43.69343" lon="5.62194">
        <ele>513.3</ele>
        <time>2022-12-22T11:59:48Z</time>
      </trkpt>
      <trkpt lat="43.69344" lon="5.62194">
        <ele>513.4</ele>
        <time>2022-12-22T12:00:09Z</time>
      </trkpt>
      <trkpt lat="43.69344" lon="5.62194">
        <ele>513.4</ele>
        <time>2022-12-22T12:00:30Z</time>
      </trkpt>
      <trkpt lat="43.69344" lon="5.62194">
        <ele>513.4</ele>
        <time>2022-12-22T12:00:50Z</time>
      </trkpt>
      <trkpt lat="43.69344" lon="5.62194">
        <ele>513.4</ele>
        <time>2022-12-22T12:01:11Z</time>
      </trkpt>
      <trkpt lat="43.69347" lon="5.622">
        <ele>512.8</ele>
        <time>2022-12-22T12:01:31Z</time>
      </trkpt>
      <trkpt lat="43.69347" lon="5.622">
        <ele>512.8</ele>
        <time>2022-12-22T12:01:52Z</time>
      </trkpt>
      <trkpt lat="43.69347" lon="5.622">
        <ele>512.8</ele>
        <time>2022-12-22T12:02:13Z</time>
      </trkpt>
      <trkpt lat="43.69347" lon="5.622">
        <ele>512.8</ele>
        <time>2022-12-22T12:02:34Z</time>
      </trkpt>
      <trkpt lat="43.69347" lon="5.622">
        <ele>512.8</ele>
        <time>2022-12-22T12:02:54Z</time>
      </trkpt>
      <trkpt lat="43.69347" lon="5.622">
        <ele>512.8</ele>
        <time>2022-12-22T12:03:15Z</time>
      </trkpt>
      <trkpt lat="43.69353" lon="5.62205">
        <ele>511.7</ele>
        <time>2022-12-22T12:03:35Z</time>
      </trkpt>
      <trkpt lat="43.69359" lon="5.62213">
        <ele>510.5</ele>
        <time>2022-12-22T12:03:56Z</time>
      </trkpt>
      <trkpt lat="43.69368" lon="5.62218">
        <ele>513.2</ele>
        <time>2022-12-22T12:04:16Z</time>
      </trkpt>
      <trkpt lat="43.69375" lon="5.6222">
        <ele>511.3</ele>
        <time>2022-12-22T12:04:37Z</time>
      </trkpt>
      <trkpt lat="43.69384" lon="5.62221">
        <ele>512.4</ele>
        <time>2022-12-22T12:04:57Z</time>
      </trkpt>
      <trkpt lat="43.69393" lon="5.62228">
        <ele>512.2</ele>
        <time>2022-12-22T12:05:18Z</time>
      </trkpt>
      <trkpt lat="43.69405" lon="5.62243">
        <ele>513.3</ele>
        <time>2022-12-22T12:05:39Z</time>
      </trkpt>
      <trkpt lat="43.6942" lon="5.62259">
        <ele>511.3</ele>
        <time>2022-12-22T12:05:59Z</time>
      </trkpt>
      <trkpt lat="43.69433" lon="5.62276">
        <ele>510.6</ele>
        <time>2022-12-22T12:06:20Z</time>
      </trkpt>
      <trkpt lat="43.69449" lon="5.62296">
        <ele>512.6</ele>
        <time>2022-12-22T12:06:41Z</time>
      </trkpt>
      <trkpt lat="43.69464" lon="5.62313">
        <ele>513</ele>
        <time>2022-12-22T12:07:01Z</time>
      </trkpt>
      <trkpt lat="43.69479" lon="5.6233">
        <ele>510.5</ele>
        <time>2022-12-22T12:07:22Z</time>
      </trkpt>
      <trkpt lat="43.69493" lon="5.62346">
        <ele>508.5</ele>
        <time>2022-12-22T12:07:43Z</time>
      </trkpt>
      <trkpt lat="43.69506" lon="5.62368">
        <ele>505.3</ele>
        <time>2022-12-22T12:08:04Z</time>
      </trkpt>
      <trkpt lat="43.69517" lon="5.62394">
        <ele>502.3</ele>
        <time>2022-12-22T12:08:24Z</time>
      </trkpt>
      <trkpt lat="43.69519" lon="5.62425">
        <ele>502.3</ele>
        <time>2022-12-22T12:08:45Z</time>
      </trkpt>
      <trkpt lat="43.69525" lon="5.62453">
        <ele>499.1</ele>
        <time>2022-12-22T12:09:06Z</time>
      </trkpt>
      <trkpt lat="43.69528" lon="5.62478">
        <ele>498.1</ele>
        <time>2022-12-22T12:09:26Z</time>
      </trkpt>
      <trkpt lat="43.69529" lon="5.62502">
        <ele>499.2</ele>
        <time>2022-12-22T12:09:46Z</time>
      </trkpt>
      <trkpt lat="43.69536" lon="5.62528">
        <ele>493.9</ele>
        <time>2022-12-22T12:10:07Z</time>
      </trkpt>
      <trkpt lat="43.69542" lon="5.62555">
        <ele>494.4</ele>
        <time>2022-12-22T12:10:28Z</time>
      </trkpt>
      <trkpt lat="43.69543" lon="5.62568">
        <ele>491.5</ele>
        <time>2022-12-22T12:10:49Z</time>
      </trkpt>
      <trkpt lat="43.69546" lon="5.62589">
        <ele>491.7</ele>
        <time>2022-12-22T12:11:09Z</time>
      </trkpt>
      <trkpt lat="43.69549" lon="5.6259">
        <ele>491.8</ele>
        <time>2022-12-22T12:11:29Z</time>
      </trkpt>
      <trkpt lat="43.69545" lon="5.62614">
        <ele>493.9</ele>
        <time>2022-12-22T12:11:49Z</time>
      </trkpt>
      <trkpt lat="43.69548" lon="5.62646">
        <ele>495</ele>
        <time>2022-12-22T12:12:10Z</time>
      </trkpt>
      <trkpt lat="43.69553" lon="5.62669">
        <ele>494.6</ele>
        <time>2022-12-22T12:12:31Z</time>
      </trkpt>
      <trkpt lat="43.69559" lon="5.6269">
        <ele>492.8</ele>
        <time>2022-12-22T12:12:51Z</time>
      </trkpt>
      <trkpt lat="43.69557" lon="5.62706">
        <ele>494.4</ele>
        <time>2022-12-22T12:13:12Z</time>
      </trkpt>
      <trkpt lat="43.69546" lon="5.62728">
        <ele>497.9</ele>
        <time>2022-12-22T12:13:33Z</time>
      </trkpt>
      <trkpt lat="43.69537" lon="5.62744">
        <ele>500.2</ele>
        <time>2022-12-22T12:13:53Z</time>
      </trkpt>
      <trkpt lat="43.69529" lon="5.62751">
        <ele>504</ele>
        <time>2022-12-22T12:14:14Z</time>
      </trkpt>
      <trkpt lat="43.69511" lon="5.6275">
        <ele>506.1</ele>
        <time>2022-12-22T12:14:35Z</time>
      </trkpt>
      <trkpt lat="43.69492" lon="5.62749">
        <ele>510.2</ele>
        <time>2022-12-22T12:14:55Z</time>
      </trkpt>
      <trkpt lat="43.69473" lon="5.62751">
        <ele>509.3</ele>
        <time>2022-12-22T12:15:16Z</time>
      </trkpt>
      <trkpt lat="43.69458" lon="5.62756">
        <ele>506.8</ele>
        <time>2022-12-22T12:15:36Z</time>
      </trkpt>
      <trkpt lat="43.69441" lon="5.62764">
        <ele>508.3</ele>
        <time>2022-12-22T12:15:57Z</time>
      </trkpt>
      <trkpt lat="43.69425" lon="5.62777">
        <ele>509.8</ele>
        <time>2022-12-22T12:16:18Z</time>
      </trkpt>
      <trkpt lat="43.69413" lon="5.62797">
        <ele>513.7</ele>
        <time>2022-12-22T12:16:39Z</time>
      </trkpt>
      <trkpt lat="43.69401" lon="5.62814">
        <ele>512.8</ele>
        <time>2022-12-22T12:16:59Z</time>
      </trkpt>
      <trkpt lat="43.69391" lon="5.62831">
        <ele>515</ele>
        <time>2022-12-22T12:17:19Z</time>
      </trkpt>
      <trkpt lat="43.69378" lon="5.62853">
        <ele>519.2</ele>
        <time>2022-12-22T12:17:40Z</time>
      </trkpt>
      <trkpt lat="43.69368" lon="5.62869">
        <ele>520.5</ele>
        <time>2022-12-22T12:18:01Z</time>
      </trkpt>
      <trkpt lat="43.69364" lon="5.62891">
        <ele>522.7</ele>
        <time>2022-12-22T12:18:21Z</time>
      </trkpt>
      <trkpt lat="43.69363" lon="5.62911">
        <ele>524.4</ele>
        <time>2022-12-22T12:18:41Z</time>
      </trkpt>
      <trkpt lat="43.69365" lon="5.62931">
        <ele>525.4</ele>
        <time>2022-12-22T12:19:02Z</time>
      </trkpt>
      <trkpt lat="43.69357" lon="5.62953">
        <ele>527.7</ele>
        <time>2022-12-22T12:19:22Z</time>
      </trkpt>
      <trkpt lat="43.69342" lon="5.62967">
        <ele>530.2</ele>
        <time>2022-12-22T12:19:43Z</time>
      </trkpt>
      <trkpt lat="43.69325" lon="5.62978">
        <ele>529.7</ele>
        <time>2022-12-22T12:20:03Z</time>
      </trkpt>
      <trkpt lat="43.69312" lon="5.6299">
        <ele>532</ele>
        <time>2022-12-22T12:20:24Z</time>
      </trkpt>
      <trkpt lat="43.69294" lon="5.63002">
        <ele>534.7</ele>
        <time>2022-12-22T12:20:45Z</time>
      </trkpt>
      <trkpt lat="43.69284" lon="5.63021">
        <ele>535.2</ele>
        <time>2022-12-22T12:21:06Z</time>
      </trkpt>
      <trkpt lat="43.69283" lon="5.63049">
        <ele>536.7</ele>
        <time>2022-12-22T12:21:27Z</time>
      </trkpt>
      <trkpt lat="43.69288" lon="5.6307">
        <ele>539.9</ele>
        <time>2022-12-22T12:21:48Z</time>
      </trkpt>
      <trkpt lat="43.69288" lon="5.6307">
        <ele>541.2</ele>
        <time>2022-12-22T12:22:08Z</time>
      </trkpt>
      <trkpt lat="43.69293" lon="5.6308">
        <ele>539.6</ele>
        <time>2022-12-22T12:22:29Z</time>
      </trkpt>
      <trkpt lat="43.69301" lon="5.631">
        <ele>538.2</ele>
        <time>2022-12-22T12:22:50Z</time>
      </trkpt>
      <trkpt lat="43.69308" lon="5.63121">
        <ele>544.3</ele>
        <time>2022-12-22T12:23:10Z</time>
      </trkpt>
      <trkpt lat="43.69313" lon="5.63149">
        <ele>547</ele>
        <time>2022-12-22T12:23:30Z</time>
      </trkpt>
      <trkpt lat="43.69318" lon="5.63173">
        <ele>550.5</ele>
        <time>2022-12-22T12:23:51Z</time>
      </trkpt>
      <trkpt lat="43.69317" lon="5.63198">
        <ele>550.5</ele>
        <time>2022-12-22T12:24:12Z</time>
      </trkpt>
      <trkpt lat="43.69313" lon="5.63225">
        <ele>552.2</ele>
        <time>2022-12-22T12:24:33Z</time>
      </trkpt>
      <trkpt lat="43.69304" lon="5.63247">
        <ele>555.5</ele>
        <time>2022-12-22T12:24:54Z</time>
      </trkpt>
      <trkpt lat="43.69287" lon="5.63269">
        <ele>554.1</ele>
        <time>2022-12-22T12:25:15Z</time>
      </trkpt>
      <trkpt lat="43.69272" lon="5.63287">
        <ele>555.3</ele>
        <time>2022-12-22T12:25:35Z</time>
      </trkpt>
      <trkpt lat="43.6926" lon="5.63308">
        <ele>555.9</ele>
        <time>2022-12-22T12:25:56Z</time>
      </trkpt>
      <trkpt lat="43.69256" lon="5.63316">
        <ele>555.7</ele>
        <time>2022-12-22T12:26:17Z</time>
      </trkpt>
      <trkpt lat="43.6925" lon="5.63334">
        <ele>556.2</ele>
        <time>2022-12-22T12:26:38Z</time>
      </trkpt>
      <trkpt lat="43.6925" lon="5.63335">
        <ele>556.4</ele>
        <time>2022-12-22T12:26:59Z</time>
      </trkpt>
      <trkpt lat="43.6925" lon="5.63335">
        <ele>556.4</ele>
        <time>2022-12-22T12:27:19Z</time>
      </trkpt>
      <trkpt lat="43.6925" lon="5.63335">
        <ele>556.4</ele>
        <time>2022-12-22T12:27:39Z</time>
      </trkpt>
      <trkpt lat="43.6925" lon="5.6334">
        <ele>555.4</ele>
        <time>2022-12-22T12:28:00Z</time>
      </trkpt>
      <trkpt lat="43.69249" lon="5.63341">
        <ele>557.1</ele>
        <time>2022-12-22T12:28:21Z</time>
      </trkpt>
      <trkpt lat="43.69244" lon="5.63347">
        <ele>558.4</ele>
        <time>2022-12-22T12:28:42Z</time>
      </trkpt>
      <trkpt lat="43.69236" lon="5.63365">
        <ele>556</ele>
        <time>2022-12-22T12:29:02Z</time>
      </trkpt>
      <trkpt lat="43.69229" lon="5.63382">
        <ele>557.8</ele>
        <time>2022-12-22T12:29:22Z</time>
      </trkpt>
      <trkpt lat="43.69223" lon="5.63402">
        <ele>560.1</ele>
        <time>2022-12-22T12:29:43Z</time>
      </trkpt>
      <trkpt lat="43.69217" lon="5.63421">
        <ele>561.4</ele>
        <time>2022-12-22T12:30:03Z</time>
      </trkpt>
      <trkpt lat="43.69208" lon="5.63442">
        <ele>562.7</ele>
        <time>2022-12-22T12:30:24Z</time>
      </trkpt>
      <trkpt lat="43.692" lon="5.63466">
        <ele>563.9</ele>
        <time>2022-12-22T12:30:44Z</time>
      </trkpt>
      <trkpt lat="43.69186" lon="5.63482">
        <ele>564.2</ele>
        <time>2022-12-22T12:31:04Z</time>
      </trkpt>
      <trkpt lat="43.6917" lon="5.63497">
        <ele>562.5</ele>
        <time>2022-12-22T12:31:25Z</time>
      </trkpt>
      <trkpt lat="43.69163" lon="5.63513">
        <ele>561.4</ele>
        <time>2022-12-22T12:31:46Z</time>
      </trkpt>
      <trkpt lat="43.69159" lon="5.63529">
        <ele>556.8</ele>
        <time>2022-12-22T12:32:06Z</time>
      </trkpt>
      <trkpt lat="43.69158" lon="5.63547">
        <ele>553.2</ele>
        <time>2022-12-22T12:32:27Z</time>
      </trkpt>
      <trkpt lat="43.69154" lon="5.63567">
        <ele>548.2</ele>
        <time>2022-12-22T12:32:47Z</time>
      </trkpt>
      <trkpt lat="43.69153" lon="5.63586">
        <ele>545.5</ele>
        <time>2022-12-22T12:33:07Z</time>
      </trkpt>
      <trkpt lat="43.69154" lon="5.63604">
        <ele>544.3</ele>
        <time>2022-12-22T12:33:27Z</time>
      </trkpt>
      <trkpt lat="43.69154" lon="5.63605">
        <ele>544.7</ele>
        <time>2022-12-22T12:33:48Z</time>
      </trkpt>
      <trkpt lat="43.69148" lon="5.63619">
        <ele>543.1</ele>
        <time>2022-12-22T12:34:08Z</time>
      </trkpt>
      <trkpt lat="43.69143" lon="5.63645">
        <ele>539.1</ele>
        <time>2022-12-22T12:34:29Z</time>
      </trkpt>
      <trkpt lat="43.69147" lon="5.63653">
        <ele>540.9</ele>
        <time>2022-12-22T12:34:50Z</time>
      </trkpt>
      <trkpt lat="43.6914" lon="5.63669">
        <ele>539.9</ele>
        <time>2022-12-22T12:35:10Z</time>
      </trkpt>
      <trkpt lat="43.69136" lon="5.63701">
        <ele>539.7</ele>
        <time>2022-12-22T12:35:31Z</time>
      </trkpt>
      <trkpt lat="43.69134" lon="5.63727">
        <ele>538.9</ele>
        <time>2022-12-22T12:35:51Z</time>
      </trkpt>
      <trkpt lat="43.69133" lon="5.63753">
        <ele>540.4</ele>
        <time>2022-12-22T12:36:12Z</time>
      </trkpt>
      <trkpt lat="43.69136" lon="5.63773">
        <ele>540.9</ele>
        <time>2022-12-22T12:36:32Z</time>
      </trkpt>
      <trkpt lat="43.69145" lon="5.63791">
        <ele>540.8</ele>
        <time>2022-12-22T12:36:53Z</time>
      </trkpt>
      <trkpt lat="43.69149" lon="5.63814">
        <ele>542.6</ele>
        <time>2022-12-22T12:37:14Z</time>
      </trkpt>
      <trkpt lat="43.69141" lon="5.63837">
        <ele>543.3</ele>
        <time>2022-12-22T12:37:34Z</time>
      </trkpt>
      <trkpt lat="43.69124" lon="5.63857">
        <ele>540.3</ele>
        <time>2022-12-22T12:37:54Z</time>
      </trkpt>
      <trkpt lat="43.69113" lon="5.63873">
        <ele>543.3</ele>
        <time>2022-12-22T12:38:14Z</time>
      </trkpt>
      <trkpt lat="43.69102" lon="5.63889">
        <ele>544.4</ele>
        <time>2022-12-22T12:38:35Z</time>
      </trkpt>
      <trkpt lat="43.69091" lon="5.63902">
        <ele>544.4</ele>
        <time>2022-12-22T12:38:55Z</time>
      </trkpt>
      <trkpt lat="43.69081" lon="5.63917">
        <ele>547.5</ele>
        <time>2022-12-22T12:39:16Z</time>
      </trkpt>
      <trkpt lat="43.69074" lon="5.63934">
        <ele>550.2</ele>
        <time>2022-12-22T12:39:36Z</time>
      </trkpt>
      <trkpt lat="43.69063" lon="5.63953">
        <ele>553.7</ele>
        <time>2022-12-22T12:39:57Z</time>
      </trkpt>
      <trkpt lat="43.69059" lon="5.63973">
        <ele>555.7</ele>
        <time>2022-12-22T12:40:17Z</time>
      </trkpt>
      <trkpt lat="43.69065" lon="5.63994">
        <ele>554.3</ele>
        <time>2022-12-22T12:40:37Z</time>
      </trkpt>
      <trkpt lat="43.69069" lon="5.64016">
        <ele>557.5</ele>
        <time>2022-12-22T12:40:58Z</time>
      </trkpt>
      <trkpt lat="43.69064" lon="5.64036">
        <ele>560.4</ele>
        <time>2022-12-22T12:41:19Z</time>
      </trkpt>
      <trkpt lat="43.69055" lon="5.64053">
        <ele>563.2</ele>
        <time>2022-12-22T12:41:40Z</time>
      </trkpt>
      <trkpt lat="43.69047" lon="5.64075">
        <ele>564.4</ele>
        <time>2022-12-22T12:42:01Z</time>
      </trkpt>
      <trkpt lat="43.69044" lon="5.64079">
        <ele>563.7</ele>
        <time>2022-12-22T12:42:22Z</time>
      </trkpt>
      <trkpt lat="43.69043" lon="5.64091">
        <ele>566.1</ele>
        <time>2022-12-22T12:42:43Z</time>
      </trkpt>
      <trkpt lat="43.69048" lon="5.64112">
        <ele>569.6</ele>
        <time>2022-12-22T12:43:03Z</time>
      </trkpt>
      <trkpt lat="43.69056" lon="5.64132">
        <ele>568.8</ele>
        <time>2022-12-22T12:43:24Z</time>
      </trkpt>
      <trkpt lat="43.6907" lon="5.64144">
        <ele>569.6</ele>
        <time>2022-12-22T12:43:45Z</time>
      </trkpt>
      <trkpt lat="43.69089" lon="5.64151">
        <ele>574.9</ele>
        <time>2022-12-22T12:44:05Z</time>
      </trkpt>
      <trkpt lat="43.69103" lon="5.64155">
        <ele>576.5</ele>
        <time>2022-12-22T12:44:25Z</time>
      </trkpt>
      <trkpt lat="43.69115" lon="5.6417">
        <ele>577.9</ele>
        <time>2022-12-22T12:44:46Z</time>
      </trkpt>
      <trkpt lat="43.69122" lon="5.64192">
        <ele>579.3</ele>
        <time>2022-12-22T12:45:07Z</time>
      </trkpt>
      <trkpt lat="43.69129" lon="5.64207">
        <ele>580.4</ele>
        <time>2022-12-22T12:45:27Z</time>
      </trkpt>
      <trkpt lat="43.69138" lon="5.64226">
        <ele>583.5</ele>
        <time>2022-12-22T12:45:48Z</time>
      </trkpt>
      <trkpt lat="43.69146" lon="5.6424">
        <ele>583.2</ele>
        <time>2022-12-22T12:46:08Z</time>
      </trkpt>
      <trkpt lat="43.69154" lon="5.64248">
        <ele>587.3</ele>
        <time>2022-12-22T12:46:29Z</time>
      </trkpt>
      <trkpt lat="43.6916" lon="5.6425">
        <ele>586.1</ele>
        <time>2022-12-22T12:46:49Z</time>
      </trkpt>
      <trkpt lat="43.69163" lon="5.64269">
        <ele>587.9</ele>
        <time>2022-12-22T12:47:09Z</time>
      </trkpt>
      <trkpt lat="43.69166" lon="5.64285">
        <ele>587.9</ele>
        <time>2022-12-22T12:47:29Z</time>
      </trkpt>
      <trkpt lat="43.6917" lon="5.64299">
        <ele>590.9</ele>
        <time>2022-12-22T12:47:50Z</time>
      </trkpt>
      <trkpt lat="43.69172" lon="5.64312">
        <ele>595.6</ele>
        <time>2022-12-22T12:48:10Z</time>
      </trkpt>
      <trkpt lat="43.69169" lon="5.64325">
        <ele>599.8</ele>
        <time>2022-12-22T12:48:31Z</time>
      </trkpt>
      <trkpt lat="43.69169" lon="5.64341">
        <ele>603.1</ele>
        <time>2022-12-22T12:48:52Z</time>
      </trkpt>
      <trkpt lat="43.6917" lon="5.64354">
        <ele>605.1</ele>
        <time>2022-12-22T12:49:13Z</time>
      </trkpt>
      <trkpt lat="43.6917" lon="5.64368">
        <ele>606.2</ele>
        <time>2022-12-22T12:49:34Z</time>
      </trkpt>
      <trkpt lat="43.69171" lon="5.64373">
        <ele>605.9</ele>
        <time>2022-12-22T12:49:54Z</time>
      </trkpt>
      <trkpt lat="43.69182" lon="5.64388">
        <ele>607.1</ele>
        <time>2022-12-22T12:50:15Z</time>
      </trkpt>
      <trkpt lat="43.69192" lon="5.644">
        <ele>609.4</ele>
        <time>2022-12-22T12:50:35Z</time>
      </trkpt>
      <trkpt lat="43.69201" lon="5.64413">
        <ele>610</ele>
        <time>2022-12-22T12:50:55Z</time>
      </trkpt>
      <trkpt lat="43.69209" lon="5.64426">
        <ele>613.6</ele>
        <time>2022-12-22T12:51:16Z</time>
      </trkpt>
      <trkpt lat="43.6921" lon="5.64432">
        <ele>615.6</ele>
        <time>2022-12-22T12:51:37Z</time>
      </trkpt>
      <trkpt lat="43.69212" lon="5.64437">
        <ele>616</ele>
        <time>2022-12-22T12:51:58Z</time>
      </trkpt>
      <trkpt lat="43.69222" lon="5.64452">
        <ele>615.1</ele>
        <time>2022-12-22T12:52:18Z</time>
      </trkpt>
      <trkpt lat="43.69229" lon="5.64475">
        <ele>614.1</ele>
        <time>2022-12-22T12:52:39Z</time>
      </trkpt>
      <trkpt lat="43.69235" lon="5.64484">
        <ele>617.4</ele>
        <time>2022-12-22T12:52:59Z</time>
      </trkpt>
      <trkpt lat="43.69232" lon="5.64491">
        <ele>617.5</ele>
        <time>2022-12-22T12:53:20Z</time>
      </trkpt>
      <trkpt lat="43.69236" lon="5.64495">
        <ele>616</ele>
        <time>2022-12-22T12:53:41Z</time>
      </trkpt>
      <trkpt lat="43.69236" lon="5.64495">
        <ele>616</ele>
        <time>2022-12-22T12:54:01Z</time>
      </trkpt>
      <trkpt lat="43.69236" lon="5.64495">
        <ele>616</ele>
        <time>2022-12-22T12:54:21Z</time>
      </trkpt>
      <trkpt lat="43.69236" lon="5.64495">
        <ele>616</ele>
        <time>2022-12-22T12:54:42Z</time>
      </trkpt>
      <trkpt lat="43.69236" lon="5.64495">
        <ele>616</ele>
        <time>2022-12-22T12:55:03Z</time>
      </trkpt>
      <trkpt lat="43.69235" lon="5.64498">
        <ele>616.1</ele>
        <time>2022-12-22T12:55:24Z</time>
      </trkpt>
      <trkpt lat="43.69232" lon="5.64514">
        <ele>614.6</ele>
        <time>2022-12-22T12:55:44Z</time>
      </trkpt>
      <trkpt lat="43.69231" lon="5.64519">
        <ele>615.4</ele>
        <time>2022-12-22T12:56:04Z</time>
      </trkpt>
      <trkpt lat="43.69229" lon="5.64533">
        <ele>614.8</ele>
        <time>2022-12-22T12:56:24Z</time>
      </trkpt>
      <trkpt lat="43.69226" lon="5.64552">
        <ele>612.3</ele>
        <time>2022-12-22T12:56:45Z</time>
      </trkpt>
      <trkpt lat="43.69215" lon="5.64564">
        <ele>608.7</ele>
        <time>2022-12-22T12:57:06Z</time>
      </trkpt>
      <trkpt lat="43.69205" lon="5.64576">
        <ele>606.6</ele>
        <time>2022-12-22T12:57:27Z</time>
      </trkpt>
      <trkpt lat="43.69194" lon="5.64593">
        <ele>608.2</ele>
        <time>2022-12-22T12:57:48Z</time>
      </trkpt>
      <trkpt lat="43.69191" lon="5.64599">
        <ele>607.2</ele>
        <time>2022-12-22T12:58:09Z</time>
      </trkpt>
      <trkpt lat="43.6918" lon="5.6461">
        <ele>607.9</ele>
        <time>2022-12-22T12:58:29Z</time>
      </trkpt>
      <trkpt lat="43.69168" lon="5.64626">
        <ele>608.7</ele>
        <time>2022-12-22T12:58:50Z</time>
      </trkpt>
      <trkpt lat="43.6916" lon="5.64641">
        <ele>606.5</ele>
        <time>2022-12-22T12:59:10Z</time>
      </trkpt>
      <trkpt lat="43.69151" lon="5.64655">
        <ele>602.8</ele>
        <time>2022-12-22T12:59:31Z</time>
      </trkpt>
      <trkpt lat="43.69149" lon="5.64669">
        <ele>601.5</ele>
        <time>2022-12-22T12:59:51Z</time>
      </trkpt>
      <trkpt lat="43.69141" lon="5.64682">
        <ele>600.7</ele>
        <time>2022-12-22T13:00:12Z</time>
      </trkpt>
      <trkpt lat="43.69136" lon="5.64697">
        <ele>599.1</ele>
        <time>2022-12-22T13:00:32Z</time>
      </trkpt>
      <trkpt lat="43.69127" lon="5.6471">
        <ele>595.2</ele>
        <time>2022-12-22T13:00:52Z</time>
      </trkpt>
      <trkpt lat="43.69122" lon="5.64729">
        <ele>593.9</ele>
        <time>2022-12-22T13:01:13Z</time>
      </trkpt>
      <trkpt lat="43.69127" lon="5.64743">
        <ele>591.9</ele>
        <time>2022-12-22T13:01:34Z</time>
      </trkpt>
      <trkpt lat="43.6913" lon="5.64752">
        <ele>589.4</ele>
        <time>2022-12-22T13:01:55Z</time>
      </trkpt>
      <trkpt lat="43.69127" lon="5.64768">
        <ele>587.8</ele>
        <time>2022-12-22T13:02:16Z</time>
      </trkpt>
      <trkpt lat="43.69126" lon="5.64785">
        <ele>587.5</ele>
        <time>2022-12-22T13:02:37Z</time>
      </trkpt>
      <trkpt lat="43.69126" lon="5.64799">
        <ele>584.2</ele>
        <time>2022-12-22T13:02:58Z</time>
      </trkpt>
      <trkpt lat="43.69124" lon="5.64815">
        <ele>583.7</ele>
        <time>2022-12-22T13:03:19Z</time>
      </trkpt>
      <trkpt lat="43.69125" lon="5.64822">
        <ele>583</ele>
        <time>2022-12-22T13:03:39Z</time>
      </trkpt>
      <trkpt lat="43.69125" lon="5.64847">
        <ele>579.7</ele>
        <time>2022-12-22T13:04:00Z</time>
      </trkpt>
      <trkpt lat="43.6912" lon="5.64862">
        <ele>579.3</ele>
        <time>2022-12-22T13:04:20Z</time>
      </trkpt>
      <trkpt lat="43.6912" lon="5.64863">
        <ele>579.4</ele>
        <time>2022-12-22T13:04:41Z</time>
      </trkpt>
      <trkpt lat="43.6912" lon="5.64863">
        <ele>579.4</ele>
        <time>2022-12-22T13:05:01Z</time>
      </trkpt>
      <trkpt lat="43.6912" lon="5.64863">
        <ele>579.4</ele>
        <time>2022-12-22T13:05:22Z</time>
      </trkpt>
      <trkpt lat="43.6912" lon="5.64863">
        <ele>579.4</ele>
        <time>2022-12-22T13:05:43Z</time>
      </trkpt>
      <trkpt lat="43.69117" lon="5.64867">
        <ele>578.3</ele>
        <time>2022-12-22T13:06:03Z</time>
      </trkpt>
      <trkpt lat="43.69117" lon="5.64877">
        <ele>574.7</ele>
        <time>2022-12-22T13:06:23Z</time>
      </trkpt>
      <trkpt lat="43.69117" lon="5.64877">
        <ele>574.7</ele>
        <time>2022-12-22T13:06:43Z</time>
      </trkpt>
      <trkpt lat="43.69115" lon="5.6488">
        <ele>575.6</ele>
        <time>2022-12-22T13:07:03Z</time>
      </trkpt>
      <trkpt lat="43.69118" lon="5.64886">
        <ele>575.8</ele>
        <time>2022-12-22T13:07:24Z</time>
      </trkpt>
      <trkpt lat="43.6912" lon="5.64892">
        <ele>576.9</ele>
        <time>2022-12-22T13:07:44Z</time>
      </trkpt>
      <trkpt lat="43.69125" lon="5.64893">
        <ele>575.3</ele>
        <time>2022-12-22T13:08:05Z</time>
      </trkpt>
      <trkpt lat="43.69125" lon="5.64893">
        <ele>575.3</ele>
        <time>2022-12-22T13:08:25Z</time>
      </trkpt>
      <trkpt lat="43.69136" lon="5.64898">
        <ele>571.1</ele>
        <time>2022-12-22T13:08:45Z</time>
      </trkpt>
      <trkpt lat="43.69143" lon="5.64894">
        <ele>569.7</ele>
        <time>2022-12-22T13:09:05Z</time>
      </trkpt>
      <trkpt lat="43.69153" lon="5.64891">
        <ele>568.9</ele>
        <time>2022-12-22T13:09:25Z</time>
      </trkpt>
      <trkpt lat="43.69154" lon="5.64902">
        <ele>564.7</ele>
        <time>2022-12-22T13:09:46Z</time>
      </trkpt>
      <trkpt lat="43.69149" lon="5.64915">
        <ele>563.9</ele>
        <time>2022-12-22T13:10:06Z</time>
      </trkpt>
      <trkpt lat="43.69147" lon="5.64926">
        <ele>561.2</ele>
        <time>2022-12-22T13:10:27Z</time>
      </trkpt>
      <trkpt lat="43.69144" lon="5.64941">
        <ele>559.2</ele>
        <time>2022-12-22T13:10:47Z</time>
      </trkpt>
      <trkpt lat="43.69141" lon="5.64954">
        <ele>556.4</ele>
        <time>2022-12-22T13:11:08Z</time>
      </trkpt>
      <trkpt lat="43.69148" lon="5.64959">
        <ele>553.8</ele>
        <time>2022-12-22T13:11:28Z</time>
      </trkpt>
      <trkpt lat="43.69149" lon="5.6496">
        <ele>552.8</ele>
        <time>2022-12-22T13:11:49Z</time>
      </trkpt>
      <trkpt lat="43.69157" lon="5.64954">
        <ele>548.5</ele>
        <time>2022-12-22T13:12:09Z</time>
      </trkpt>
      <trkpt lat="43.69165" lon="5.64956">
        <ele>547.8</ele>
        <time>2022-12-22T13:12:30Z</time>
      </trkpt>
      <trkpt lat="43.69174" lon="5.64962">
        <ele>546.5</ele>
        <time>2022-12-22T13:12:50Z</time>
      </trkpt>
      <trkpt lat="43.69177" lon="5.64961">
        <ele>545.7</ele>
        <time>2022-12-22T13:13:11Z</time>
      </trkpt>
      <trkpt lat="43.69186" lon="5.64957">
        <ele>543.1</ele>
        <time>2022-12-22T13:13:32Z</time>
      </trkpt>
      <trkpt lat="43.69183" lon="5.64971">
        <ele>540.7</ele>
        <time>2022-12-22T13:13:52Z</time>
      </trkpt>
      <trkpt lat="43.69179" lon="5.64984">
        <ele>534.7</ele>
        <time>2022-12-22T13:14:12Z</time>
      </trkpt>
      <trkpt lat="43.69179" lon="5.64988">
        <ele>535.2</ele>
        <time>2022-12-22T13:14:33Z</time>
      </trkpt>
      <trkpt lat="43.69179" lon="5.64988">
        <ele>535.2</ele>
        <time>2022-12-22T13:14:53Z</time>
      </trkpt>
      <trkpt lat="43.69185" lon="5.64999">
        <ele>535</ele>
        <time>2022-12-22T13:15:14Z</time>
      </trkpt>
      <trkpt lat="43.69189" lon="5.65003">
        <ele>529.7</ele>
        <time>2022-12-22T13:15:34Z</time>
      </trkpt>
      <trkpt lat="43.69186" lon="5.65013">
        <ele>526.9</ele>
        <time>2022-12-22T13:15:55Z</time>
      </trkpt>
      <trkpt lat="43.69185" lon="5.65023">
        <ele>523.5</ele>
        <time>2022-12-22T13:16:15Z</time>
      </trkpt>
      <trkpt lat="43.6919" lon="5.65036">
        <ele>522.5</ele>
        <time>2022-12-22T13:16:35Z</time>
      </trkpt>
      <trkpt lat="43.69195" lon="5.65038">
        <ele>520.7</ele>
        <time>2022-12-22T13:16:56Z</time>
      </trkpt>
      <trkpt lat="43.69202" lon="5.65044">
        <ele>517.6</ele>
        <time>2022-12-22T13:17:17Z</time>
      </trkpt>
      <trkpt lat="43.69208" lon="5.65049">
        <ele>514.9</ele>
        <time>2022-12-22T13:17:37Z</time>
      </trkpt>
      <trkpt lat="43.69212" lon="5.65057">
        <ele>510.8</ele>
        <time>2022-12-22T13:17:57Z</time>
      </trkpt>
      <trkpt lat="43.69216" lon="5.65073">
        <ele>507.1</ele>
        <time>2022-12-22T13:18:18Z</time>
      </trkpt>
      <trkpt lat="43.69219" lon="5.6509">
        <ele>505.1</ele>
        <time>2022-12-22T13:18:38Z</time>
      </trkpt>
      <trkpt lat="43.69218" lon="5.6509">
        <ele>506.4</ele>
        <time>2022-12-22T13:18:58Z</time>
      </trkpt>
      <trkpt lat="43.69219" lon="5.65094">
        <ele>505.3</ele>
        <time>2022-12-22T13:19:19Z</time>
      </trkpt>
      <trkpt lat="43.69221" lon="5.65118">
        <ele>499.6</ele>
        <time>2022-12-22T13:19:40Z</time>
      </trkpt>
      <trkpt lat="43.69221" lon="5.65134">
        <ele>499.3</ele>
        <time>2022-12-22T13:20:00Z</time>
      </trkpt>
      <trkpt lat="43.69219" lon="5.65146">
        <ele>493.4</ele>
        <time>2022-12-22T13:20:21Z</time>
      </trkpt>
      <trkpt lat="43.6922" lon="5.65162">
        <ele>491.7</ele>
        <time>2022-12-22T13:20:42Z</time>
      </trkpt>
      <trkpt lat="43.69219" lon="5.65178">
        <ele>490.2</ele>
        <time>2022-12-22T13:21:03Z</time>
      </trkpt>
      <trkpt lat="43.69216" lon="5.65192">
        <ele>486.6</ele>
        <time>2022-12-22T13:21:24Z</time>
      </trkpt>
      <trkpt lat="43.69215" lon="5.65206">
        <ele>481.8</ele>
        <time>2022-12-22T13:21:44Z</time>
      </trkpt>
      <trkpt lat="43.6921" lon="5.65231">
        <ele>478.7</ele>
        <time>2022-12-22T13:22:05Z</time>
      </trkpt>
      <trkpt lat="43.6921" lon="5.65233">
        <ele>481.4</ele>
        <time>2022-12-22T13:22:26Z</time>
      </trkpt>
      <trkpt lat="43.6921" lon="5.65233">
        <ele>481.4</ele>
        <time>2022-12-22T13:22:46Z</time>
      </trkpt>
      <trkpt lat="43.6921" lon="5.65233">
        <ele>481.4</ele>
        <time>2022-12-22T13:23:07Z</time>
      </trkpt>
      <trkpt lat="43.69209" lon="5.65241">
        <ele>476.9</ele>
        <time>2022-12-22T13:23:27Z</time>
      </trkpt>
      <trkpt lat="43.69211" lon="5.65262">
        <ele>474.6</ele>
        <time>2022-12-22T13:23:47Z</time>
      </trkpt>
      <trkpt lat="43.69215" lon="5.6528">
        <ele>474</ele>
        <time>2022-12-22T13:24:08Z</time>
      </trkpt>
      <trkpt lat="43.69215" lon="5.65293">
        <ele>471.2</ele>
        <time>2022-12-22T13:24:29Z</time>
      </trkpt>
      <trkpt lat="43.69213" lon="5.65309">
        <ele>469.6</ele>
        <time>2022-12-22T13:35:06Z</time>
      </trkpt>
      <trkpt lat="43.6921" lon="5.65332">
        <ele>465.6</ele>
        <time>2022-12-22T13:35:26Z</time>
      </trkpt>
      <trkpt lat="43.69208" lon="5.65354">
        <ele>464.1</ele>
        <time>2022-12-22T13:35:47Z</time>
      </trkpt>
      <trkpt lat="43.69208" lon="5.65375">
        <ele>462.3</ele>
        <time>2022-12-22T13:36:07Z</time>
      </trkpt>
      <trkpt lat="43.69206" lon="5.65397">
        <ele>457.2</ele>
        <time>2022-12-22T13:36:28Z</time>
      </trkpt>
      <trkpt lat="43.69208" lon="5.65413">
        <ele>457.1</ele>
        <time>2022-12-22T13:36:48Z</time>
      </trkpt>
      <trkpt lat="43.69207" lon="5.65427">
        <ele>453.1</ele>
        <time>2022-12-22T13:37:09Z</time>
      </trkpt>
      <trkpt lat="43.69206" lon="5.65436">
        <ele>449.1</ele>
        <time>2022-12-22T13:37:30Z</time>
      </trkpt>
      <trkpt lat="43.69206" lon="5.65444">
        <ele>451.9</ele>
        <time>2022-12-22T13:37:51Z</time>
      </trkpt>
      <trkpt lat="43.69207" lon="5.6546">
        <ele>449</ele>
        <time>2022-12-22T13:38:11Z</time>
      </trkpt>
      <trkpt lat="43.69203" lon="5.65474">
        <ele>446.2</ele>
        <time>2022-12-22T13:38:32Z</time>
      </trkpt>
      <trkpt lat="43.69204" lon="5.65489">
        <ele>445.3</ele>
        <time>2022-12-22T13:38:53Z</time>
      </trkpt>
      <trkpt lat="43.69206" lon="5.655">
        <ele>439.3</ele>
        <time>2022-12-22T13:39:13Z</time>
      </trkpt>
      <trkpt lat="43.6921" lon="5.65509">
        <ele>436.6</ele>
        <time>2022-12-22T13:39:34Z</time>
      </trkpt>
      <trkpt lat="43.69213" lon="5.65519">
        <ele>433.4</ele>
        <time>2022-12-22T13:39:55Z</time>
      </trkpt>
      <trkpt lat="43.6921" lon="5.65535">
        <ele>430.1</ele>
        <time>2022-12-22T13:40:16Z</time>
      </trkpt>
      <trkpt lat="43.69211" lon="5.65539">
        <ele>433.7</ele>
        <time>2022-12-22T13:40:37Z</time>
      </trkpt>
      <trkpt lat="43.69209" lon="5.65539">
        <ele>432.3</ele>
        <time>2022-12-22T13:40:57Z</time>
      </trkpt>
      <trkpt lat="43.69204" lon="5.65555">
        <ele>431.1</ele>
        <time>2022-12-22T13:41:18Z</time>
      </trkpt>
      <trkpt lat="43.69208" lon="5.65561">
        <ele>428.6</ele>
        <time>2022-12-22T13:41:39Z</time>
      </trkpt>
      <trkpt lat="43.69208" lon="5.65579">
        <ele>427.9</ele>
        <time>2022-12-22T13:42:00Z</time>
      </trkpt>
      <trkpt lat="43.69211" lon="5.65595">
        <ele>428.8</ele>
        <time>2022-12-22T13:42:20Z</time>
      </trkpt>
      <trkpt lat="43.69214" lon="5.65613">
        <ele>425.7</ele>
        <time>2022-12-22T13:42:41Z</time>
      </trkpt>
      <trkpt lat="43.69223" lon="5.65622">
        <ele>420.3</ele>
        <time>2022-12-22T13:43:02Z</time>
      </trkpt>
      <trkpt lat="43.69233" lon="5.65636">
        <ele>419.1</ele>
        <time>2022-12-22T13:43:23Z</time>
      </trkpt>
      <trkpt lat="43.69243" lon="5.65641">
        <ele>414.1</ele>
        <time>2022-12-22T13:43:43Z</time>
      </trkpt>
      <trkpt lat="43.69255" lon="5.65643">
        <ele>408.8</ele>
        <time>2022-12-22T13:44:03Z</time>
      </trkpt>
      <trkpt lat="43.69261" lon="5.65646">
        <ele>407.3</ele>
        <time>2022-12-22T13:44:24Z</time>
      </trkpt>
      <trkpt lat="43.69261" lon="5.65646">
        <ele>407.3</ele>
        <time>2022-12-22T13:44:44Z</time>
      </trkpt>
      <trkpt lat="43.69261" lon="5.65646">
        <ele>407.3</ele>
        <time>2022-12-22T13:45:05Z</time>
      </trkpt>
      <trkpt lat="43.69261" lon="5.65646">
        <ele>407.3</ele>
        <time>2022-12-22T13:45:25Z</time>
      </trkpt>
      <trkpt lat="43.69261" lon="5.65646">
        <ele>407.3</ele>
        <time>2022-12-22T13:45:45Z</time>
      </trkpt>
      <trkpt lat="43.69261" lon="5.65646">
        <ele>407.3</ele>
        <time>2022-12-22T13:46:06Z</time>
      </trkpt>
      <trkpt lat="43.69266" lon="5.65655">
        <ele>401.6</ele>
        <time>2022-12-22T13:46:27Z</time>
      </trkpt>
      <trkpt lat="43.69277" lon="5.65667">
        <ele>397.8</ele>
        <time>2022-12-22T13:46:48Z</time>
      </trkpt>
      <trkpt lat="43.6928" lon="5.65687">
        <ele>396.7</ele>
        <time>2022-12-22T13:47:08Z</time>
      </trkpt>
      <trkpt lat="43.69286" lon="5.65711">
        <ele>396.4</ele>
        <time>2022-12-22T13:47:29Z</time>
      </trkpt>
      <trkpt lat="43.69288" lon="5.65726">
        <ele>393.9</ele>
        <time>2022-12-22T13:47:49Z</time>
      </trkpt>
      <trkpt lat="43.69288" lon="5.65727">
        <ele>393.4</ele>
        <time>2022-12-22T13:48:09Z</time>
      </trkpt>
      <trkpt lat="43.69288" lon="5.65727">
        <ele>393.4</ele>
        <time>2022-12-22T13:48:30Z</time>
      </trkpt>
      <trkpt lat="43.69288" lon="5.65727">
        <ele>393.4</ele>
        <time>2022-12-22T13:48:51Z</time>
      </trkpt>
      <trkpt lat="43.69298" lon="5.65721">
        <ele>392.8</ele>
        <time>2022-12-22T13:49:12Z</time>
      </trkpt>
      <trkpt lat="43.69319" lon="5.65722">
        <ele>394.4</ele>
        <time>2022-12-22T13:49:32Z</time>
      </trkpt>
      <trkpt lat="43.69333" lon="5.65722">
        <ele>390.5</ele>
        <time>2022-12-22T13:49:53Z</time>
      </trkpt>
      <trkpt lat="43.69351" lon="5.65743">
        <ele>389.6</ele>
        <time>2022-12-22T13:50:13Z</time>
      </trkpt>
      <trkpt lat="43.69368" lon="5.65759">
        <ele>387.9</ele>
        <time>2022-12-22T13:50:33Z</time>
      </trkpt>
      <trkpt lat="43.69387" lon="5.6576">
        <ele>381.5</ele>
        <time>2022-12-22T13:50:54Z</time>
      </trkpt>
      <trkpt lat="43.69404" lon="5.65749">
        <ele>380.5</ele>
        <time>2022-12-22T13:51:14Z</time>
      </trkpt>
      <trkpt lat="43.69409" lon="5.65748">
        <ele>379.7</ele>
        <time>2022-12-22T13:51:35Z</time>
      </trkpt>
      <trkpt lat="43.69415" lon="5.65753">
        <ele>381.3</ele>
        <time>2022-12-22T13:51:56Z</time>
      </trkpt>
      <trkpt lat="43.69419" lon="5.6578">
        <ele>379.4</ele>
        <time>2022-12-22T13:52:16Z</time>
      </trkpt>
      <trkpt lat="43.69418" lon="5.65809">
        <ele>374.5</ele>
        <time>2022-12-22T13:52:36Z</time>
      </trkpt>
      <trkpt lat="43.6943" lon="5.65831">
        <ele>369.2</ele>
        <time>2022-12-22T13:52:57Z</time>
      </trkpt>
      <trkpt lat="43.69447" lon="5.65852">
        <ele>367.8</ele>
        <time>2022-12-22T13:53:18Z</time>
      </trkpt>
      <trkpt lat="43.69463" lon="5.65864">
        <ele>366.6</ele>
        <time>2022-12-22T13:53:39Z</time>
      </trkpt>
      <trkpt lat="43.69481" lon="5.65874">
        <ele>362.6</ele>
        <time>2022-12-22T13:54:00Z</time>
      </trkpt>
      <trkpt lat="43.69496" lon="5.65885">
        <ele>361.2</ele>
        <time>2022-12-22T13:54:21Z</time>
      </trkpt>
      <trkpt lat="43.69496" lon="5.65885">
        <ele>361.2</ele>
        <time>2022-12-22T13:54:41Z</time>
      </trkpt>
      <trkpt lat="43.69488" lon="5.65902">
        <ele>362.3</ele>
        <time>2022-12-22T13:55:01Z</time>
      </trkpt>
      <trkpt lat="43.69478" lon="5.65928">
        <ele>360.1</ele>
        <time>2022-12-22T13:55:22Z</time>
      </trkpt>
      <trkpt lat="43.69468" lon="5.65958">
        <ele>358</ele>
        <time>2022-12-22T13:55:42Z</time>
      </trkpt>
      <trkpt lat="43.69461" lon="5.65991">
        <ele>359.3</ele>
        <time>2022-12-22T13:56:03Z</time>
      </trkpt>
      <trkpt lat="43.69443" lon="5.66007">
        <ele>351.3</ele>
        <time>2022-12-22T13:56:23Z</time>
      </trkpt>
      <trkpt lat="43.69434" lon="5.66021">
        <ele>353.9</ele>
        <time>2022-12-22T13:56:44Z</time>
      </trkpt>
      <trkpt lat="43.6942" lon="5.66044">
        <ele>352.2</ele>
        <time>2022-12-22T13:57:05Z</time>
      </trkpt>
      <trkpt lat="43.69407" lon="5.66068">
        <ele>354.4</ele>
        <time>2022-12-22T13:57:25Z</time>
      </trkpt>
      <trkpt lat="43.69396" lon="5.66097">
        <ele>362.9</ele>
        <time>2022-12-22T13:57:45Z</time>
      </trkpt>
      <trkpt lat="43.694" lon="5.6612">
        <ele>361.1</ele>
        <time>2022-12-22T13:58:05Z</time>
      </trkpt>
      <trkpt lat="43.69398" lon="5.66146">
        <ele>358.9</ele>
        <time>2022-12-22T13:58:25Z</time>
      </trkpt>
      <trkpt lat="43.69387" lon="5.66179">
        <ele>358.8</ele>
        <time>2022-12-22T13:58:46Z</time>
      </trkpt>
      <trkpt lat="43.69377" lon="5.66206">
        <ele>350.8</ele>
        <time>2022-12-22T13:59:07Z</time>
      </trkpt>
      <trkpt lat="43.69367" lon="5.66234">
        <ele>352.2</ele>
        <time>2022-12-22T13:59:27Z</time>
      </trkpt>
      <trkpt lat="43.69355" lon="5.66251">
        <ele>352.7</ele>
        <time>2022-12-22T13:59:48Z</time>
      </trkpt>
      <trkpt lat="43.6935" lon="5.66258">
        <ele>355.8</ele>
        <time>2022-12-22T14:00:08Z</time>
      </trkpt>
      <trkpt lat="43.6935" lon="5.66258">
        <ele>356</ele>
        <time>2022-12-22T14:00:29Z</time>
      </trkpt>
      <trkpt lat="43.69347" lon="5.66269">
        <ele>355.9</ele>
        <time>2022-12-22T14:00:49Z</time>
      </trkpt>
      <trkpt lat="43.69337" lon="5.66287">
        <ele>353.5</ele>
        <time>2022-12-22T14:01:10Z</time>
      </trkpt>
      <trkpt lat="43.69327" lon="5.66313">
        <ele>354.2</ele>
        <time>2022-12-22T14:01:31Z</time>
      </trkpt>
      <trkpt lat="43.69319" lon="5.66338">
        <ele>350.7</ele>
        <time>2022-12-22T14:01:52Z</time>
      </trkpt>
      <trkpt lat="43.69312" lon="5.66369">
        <ele>349.8</ele>
        <time>2022-12-22T14:02:12Z</time>
      </trkpt>
      <trkpt lat="43.69306" lon="5.66395">
        <ele>349.4</ele>
        <time>2022-12-22T14:02:33Z</time>
      </trkpt>
      <trkpt lat="43.69305" lon="5.66413">
        <ele>347.8</ele>
        <time>2022-12-22T14:02:54Z</time>
      </trkpt>
      <trkpt lat="43.69305" lon="5.66414">
        <ele>347.7</ele>
        <time>2022-12-22T14:03:14Z</time>
      </trkpt>
      <trkpt lat="43.69302" lon="5.66412">
        <ele>349.4</ele>
        <time>2022-12-22T14:03:35Z</time>
      </trkpt>
      <trkpt lat="43.69294" lon="5.66415">
        <ele>348.7</ele>
        <time>2022-12-22T14:03:55Z</time>
      </trkpt>
      <trkpt lat="43.69284" lon="5.66413">
        <ele>346.4</ele>
        <time>2022-12-22T14:04:16Z</time>
      </trkpt>
      <trkpt lat="43.69283" lon="5.66413">
        <ele>346.2</ele>
        <time>2022-12-22T14:04:36Z</time>
      </trkpt>
      <trkpt lat="43.69283" lon="5.66413">
        <ele>346.2</ele>
        <time>2022-12-22T14:04:57Z</time>
      </trkpt>
      <trkpt lat="43.69276" lon="5.66415">
        <ele>343.9</ele>
        <time>2022-12-22T14:05:18Z</time>
      </trkpt>
      <trkpt lat="43.69266" lon="5.66411">
        <ele>338.3</ele>
        <time>2022-12-22T14:05:39Z</time>
      </trkpt>
      <trkpt lat="43.69252" lon="5.6641">
        <ele>336.8</ele>
        <time>2022-12-22T14:06:00Z</time>
      </trkpt>
      <trkpt lat="43.69249" lon="5.66411">
        <ele>337.5</ele>
        <time>2022-12-22T14:06:21Z</time>
      </trkpt>
      <trkpt lat="43.69243" lon="5.66411">
        <ele>338.1</ele>
        <time>2022-12-22T14:06:42Z</time>
      </trkpt>
      <trkpt lat="43.69232" lon="5.66411">
        <ele>336.5</ele>
        <time>2022-12-22T14:07:02Z</time>
      </trkpt>
      <trkpt lat="43.6923" lon="5.66414">
        <ele>335.2</ele>
        <time>2022-12-22T14:07:23Z</time>
      </trkpt>
      <trkpt lat="43.6923" lon="5.66414">
        <ele>335.2</ele>
        <time>2022-12-22T14:07:43Z</time>
      </trkpt>
      <trkpt lat="43.69221" lon="5.66413">
        <ele>332.7</ele>
        <time>2022-12-22T14:08:04Z</time>
      </trkpt>
      <trkpt lat="43.69207" lon="5.66412">
        <ele>331.3</ele>
        <time>2022-12-22T14:08:25Z</time>
      </trkpt>
      <trkpt lat="43.69213" lon="5.66426">
        <ele>326.8</ele>
        <time>2022-12-22T14:08:46Z</time>
      </trkpt>
      <trkpt lat="43.69212" lon="5.6645">
        <ele>320.7</ele>
        <time>2022-12-22T14:09:07Z</time>
      </trkpt>
      <trkpt lat="43.69218" lon="5.66464">
        <ele>320.3</ele>
        <time>2022-12-22T14:09:27Z</time>
      </trkpt>
      <trkpt lat="43.69233" lon="5.66473">
        <ele>316.8</ele>
        <time>2022-12-22T14:09:48Z</time>
      </trkpt>
      <trkpt lat="43.69239" lon="5.6649">
        <ele>315.9</ele>
        <time>2022-12-22T14:10:09Z</time>
      </trkpt>
      <trkpt lat="43.69246" lon="5.66505">
        <ele>314.3</ele>
        <time>2022-12-22T14:10:30Z</time>
      </trkpt>
      <trkpt lat="43.69261" lon="5.66513">
        <ele>314.1</ele>
        <time>2022-12-22T14:10:50Z</time>
      </trkpt>
      <trkpt lat="43.69276" lon="5.66512">
        <ele>314.9</ele>
        <time>2022-12-22T14:11:11Z</time>
      </trkpt>
      <trkpt lat="43.69277" lon="5.66512">
        <ele>315</ele>
        <time>2022-12-22T14:11:32Z</time>
      </trkpt>
      <trkpt lat="43.69288" lon="5.66512">
        <ele>313</ele>
        <time>2022-12-22T14:11:52Z</time>
      </trkpt>
      <trkpt lat="43.6929" lon="5.66514">
        <ele>310.8</ele>
        <time>2022-12-22T14:12:12Z</time>
      </trkpt>
      <trkpt lat="43.6929" lon="5.66514">
        <ele>310.8</ele>
        <time>2022-12-22T14:12:33Z</time>
      </trkpt>
      <trkpt lat="43.6929" lon="5.66514">
        <ele>310.8</ele>
        <time>2022-12-22T14:12:53Z</time>
      </trkpt>
      <trkpt lat="43.69289" lon="5.66526">
        <ele>307.7</ele>
        <time>2022-12-22T14:13:14Z</time>
      </trkpt>
      <trkpt lat="43.69287" lon="5.66535">
        <ele>308.4</ele>
        <time>2022-12-22T14:13:34Z</time>
      </trkpt>
      <trkpt lat="43.69285" lon="5.66541">
        <ele>307</ele>
        <time>2022-12-22T14:13:55Z</time>
      </trkpt>
      <trkpt lat="43.69284" lon="5.6655">
        <ele>306.8</ele>
        <time>2022-12-22T14:14:16Z</time>
      </trkpt>
      <trkpt lat="43.6928" lon="5.66567">
        <ele>304.4</ele>
        <time>2022-12-22T14:14:37Z</time>
      </trkpt>
      <trkpt lat="43.69275" lon="5.66587">
        <ele>297</ele>
        <time>2022-12-22T14:14:57Z</time>
      </trkpt>
      <trkpt lat="43.69265" lon="5.66602">
        <ele>296.7</ele>
        <time>2022-12-22T14:15:18Z</time>
      </trkpt>
      <trkpt lat="43.69267" lon="5.66622">
        <ele>296.8</ele>
        <time>2022-12-22T14:15:39Z</time>
      </trkpt>
      <trkpt lat="43.69264" lon="5.66649">
        <ele>296.5</ele>
        <time>2022-12-22T14:16:00Z</time>
      </trkpt>
      <trkpt lat="43.69271" lon="5.66666">
        <ele>290.9</ele>
        <time>2022-12-22T14:16:21Z</time>
      </trkpt>
      <trkpt lat="43.69269" lon="5.66686">
        <ele>290.1</ele>
        <time>2022-12-22T14:16:42Z</time>
      </trkpt>
      <trkpt lat="43.69275" lon="5.66704">
        <ele>286.4</ele>
        <time>2022-12-22T14:17:02Z</time>
      </trkpt>
      <trkpt lat="43.69274" lon="5.66726">
        <ele>285</ele>
        <time>2022-12-22T14:17:23Z</time>
      </trkpt>
      <trkpt lat="43.69273" lon="5.6675">
        <ele>286.8</ele>
        <time>2022-12-22T14:17:43Z</time>
      </trkpt>
      <trkpt lat="43.69274" lon="5.66775">
        <ele>287.4</ele>
        <time>2022-12-22T14:18:04Z</time>
      </trkpt>
      <trkpt lat="43.69285" lon="5.66787">
        <ele>282.2</ele>
        <time>2022-12-22T14:18:25Z</time>
      </trkpt>
      <trkpt lat="43.69297" lon="5.66799">
        <ele>283.2</ele>
        <time>2022-12-22T14:18:46Z</time>
      </trkpt>
      <trkpt lat="43.69301" lon="5.66822">
        <ele>281.8</ele>
        <time>2022-12-22T14:19:07Z</time>
      </trkpt>
      <trkpt lat="43.69305" lon="5.6684">
        <ele>282.8</ele>
        <time>2022-12-22T14:19:28Z</time>
      </trkpt>
      <trkpt lat="43.69317" lon="5.66841">
        <ele>284.2</ele>
        <time>2022-12-22T14:19:48Z</time>
      </trkpt>
      <trkpt lat="43.69329" lon="5.66851">
        <ele>286.4</ele>
        <time>2022-12-22T14:20:08Z</time>
      </trkpt>
      <trkpt lat="43.69334" lon="5.66853">
        <ele>288.7</ele>
        <time>2022-12-22T14:20:29Z</time>
      </trkpt>
      <trkpt lat="43.69343" lon="5.66853">
        <ele>287.7</ele>
        <time>2022-12-22T14:20:50Z</time>
      </trkpt>
      <trkpt lat="43.69346" lon="5.66865">
        <ele>284.9</ele>
        <time>2022-12-22T14:21:11Z</time>
      </trkpt>
      <trkpt lat="43.6933" lon="5.66874">
        <ele>284.3</ele>
        <time>2022-12-22T14:21:32Z</time>
      </trkpt>
      <trkpt lat="43.69311" lon="5.66884">
        <ele>286.4</ele>
        <time>2022-12-22T14:21:53Z</time>
      </trkpt>
      <trkpt lat="43.69294" lon="5.66884">
        <ele>288.6</ele>
        <time>2022-12-22T14:22:13Z</time>
      </trkpt>
      <trkpt lat="43.6928" lon="5.6688">
        <ele>290.1</ele>
        <time>2022-12-22T14:22:33Z</time>
      </trkpt>
      <trkpt lat="43.69267" lon="5.66873">
        <ele>289.9</ele>
        <time>2022-12-22T14:22:54Z</time>
      </trkpt>
      <trkpt lat="43.6925" lon="5.66862">
        <ele>286.9</ele>
        <time>2022-12-22T14:23:15Z</time>
      </trkpt>
      <trkpt lat="43.69244" lon="5.66857">
        <ele>286.6</ele>
        <time>2022-12-22T14:23:36Z</time>
      </trkpt>
      <trkpt lat="43.69225" lon="5.66847">
        <ele>284.9</ele>
        <time>2022-12-22T14:23:57Z</time>
      </trkpt>
      <trkpt lat="43.69209" lon="5.66843">
        <ele>283.7</ele>
        <time>2022-12-22T14:24:18Z</time>
      </trkpt>
      <trkpt lat="43.69201" lon="5.66841">
        <ele>280.9</ele>
        <time>2022-12-22T14:24:39Z</time>
      </trkpt>
      <trkpt lat="43.69192" lon="5.66833">
        <ele>281.7</ele>
        <time>2022-12-22T14:25:00Z</time>
      </trkpt>
      <trkpt lat="43.69172" lon="5.6682">
        <ele>282.5</ele>
        <time>2022-12-22T14:25:21Z</time>
      </trkpt>
      <trkpt lat="43.69155" lon="5.6681">
        <ele>281.9</ele>
        <time>2022-12-22T14:25:42Z</time>
      </trkpt>
      <trkpt lat="43.69137" lon="5.66796">
        <ele>282.6</ele>
        <time>2022-12-22T14:26:03Z</time>
      </trkpt>
      <trkpt lat="43.69118" lon="5.66785">
        <ele>287.6</ele>
        <time>2022-12-22T14:26:24Z</time>
      </trkpt>
      <trkpt lat="43.69103" lon="5.66766">
        <ele>289.6</ele>
        <time>2022-12-22T14:26:44Z</time>
      </trkpt>
      <trkpt lat="43.69096" lon="5.66741">
        <ele>287.1</ele>
        <time>2022-12-22T14:27:05Z</time>
      </trkpt>
      <trkpt lat="43.6909" lon="5.66733">
        <ele>285.5</ele>
        <time>2022-12-22T14:27:25Z</time>
      </trkpt>
      <trkpt lat="43.6909" lon="5.66733">
        <ele>285.5</ele>
        <time>2022-12-22T14:27:46Z</time>
      </trkpt>
      <trkpt lat="43.69086" lon="5.66717">
        <ele>284.2</ele>
        <time>2022-12-22T14:28:06Z</time>
      </trkpt>
    </trkseg>
  </trk>
</gpx>